Zarling — WDD7883 — position and weather

sailwx.info

Track history (hours):
 
Tides and Currents Weather Stations Pressure Air Temp Water Temp Dewpoint Dewpoint Depression Visibility Wind Speed Wind Dir Waves Ship Positions

Zarling

Owner: Clean Rivers Co-op, Portland, OR. More information available from US FCC via Universal Licensing System.

Last reported at 2016-Aug-28 13:32 UTC. Time now 2016-Aug-28 13:59 UTC.
Position N 45°37' W 122°48'.

Length 12 m.

Type: Pollution control. MMSI: 3699126.

Date/timePositionNaut miles runAvg speedWind from/ knotsBaromVisibWave heightAir tempDewpointWater temp
2016-Aug-28 13:32N 45°37' W 122°48'292064.8
2016-Aug-28 13:31N 46°05' W 122°56'39760.8
2016-Aug-28 13:28N 46°11' W 123°51'0 0.0
2016-Aug-28 12:31N 46°11' W 123°51'561672.4
2016-Aug-28 12:29N 45°37' W 122°48'5657.7
2016-Aug-28 11:31N 46°11' W 123°51'561618.6
2016-Aug-28 11:29N 45°37' W 122°48'291911.9
2016-Aug-28 11:28N 46°05' W 122°56'2930.6
2016-Aug-28 10:32N 45°37' W 122°48'563786.9
2016-Aug-28 10:31N 46°11' W 123°51'39156.7
2016-Aug-28 10:16N 46°05' W 122°56'2939.0
2016-Aug-28 09:32N 45°37' W 122°48'564181.4
2016-Aug-28 09:31N 46°11' W 123°51'5656.6
2016-Aug-28 08:32N 45°37' W 122°48'563716.8
2016-Aug-28 08:31N 46°11' W 123°51'39777.6
2016-Aug-28 08:28N 46°05' W 122°56'2930.7
2016-Aug-28 07:32N 45°37' W 122°48'563584.0
2016-Aug-28 07:31N 46°11' W 123°51'39799.7
2016-Aug-28 07:28N 46°05' W 122°56'2930.7
2016-Aug-28 06:32N 45°37' W 122°48'563649.2
2016-Aug-28 06:31N 46°11' W 123°51'39261.6
2016-Aug-28 06:22N 46°05' W 122°56'2934.4
2016-Aug-28 05:32N 45°37' W 122°48'563521.2
2016-Aug-28 05:31N 46°11' W 123°51'5656.6
2016-Aug-28 04:32N 45°37' W 122°48'563859.5
2016-Aug-28 04:31N 46°11' W 123°51'0 0.0
2016-Aug-28 03:31N 46°11' W 123°51'56641.2
2016-Aug-28 03:26N 45°37' W 122°48'29175.0
2016-Aug-28 03:16N 46°05' W 122°56'20124.0
2016-Aug-28 03:06N 46°12' W 123°23'2033.4
2016-Aug-28 02:31N 46°11' W 123°51'561568.0
2016-Aug-28 02:29N 45°37' W 122°48'43543.5
2016-Aug-28 02:24N 46°12' W 123°23'20149.3
2016-Aug-28 02:16N 46°05' W 122°56'2939.0
2016-Aug-28 01:32N 45°37' W 122°48'564014.1
2016-Aug-28 01:31N 46°11' W 123°51'201379.7
2016-Aug-28 01:30N 46°12' W 123°23'20149.3
2016-Aug-28 01:22N 46°05' W 122°56'2934.3
2016-Aug-28 00:32N 45°37' W 122°48'563935.4
2016-Aug-28 00:31N 46°11' W 123°51'39769.1
2016-Aug-28 00:28N 46°05' W 122°56'20321.4
2016-Aug-28 00:24N 46°12' W 123°23'4349.1
2016-Aug-27 23:32N 45°37' W 122°48'564181.4
2016-Aug-27 23:31N 46°11' W 123°51'39773.4
2016-Aug-27 23:28N 46°05' W 122°56'2077.4
2016-Aug-27 23:12N 46°12' W 123°23'2028.5
2016-Aug-27 22:31N 46°11' W 123°51'201436.0
2016-Aug-27 22:30N 46°12' W 123°23'2086.2
2016-Aug-27 22:16N 46°05' W 122°56'29800.3
2016-Aug-27 22:14N 45°37' W 122°48'5678.1
2016-Aug-27 21:31N 46°11' W 123°51'561580.4
2016-Aug-27 21:29N 45°37' W 122°48'29248.8
2016-Aug-27 21:22N 46°05' W 122°56'2023.6
2016-Aug-27 20:30N 46°12' W 123°23'432031.1
2016-Aug-27 20:29N 45°37' W 122°48'563786.9
2016-Aug-27 20:28N 46°11' W 123°51'5659.5
2016-Aug-27 19:32N 45°37' W 122°48'564096.0
2016-Aug-27 19:31N 46°11' W 123°51'3970375.9
2016-Aug-27 19:31N 46°05' W 122°56'201437.1
2016-Aug-27 19:30N 46°12' W 123°23'2019.9
2016-Aug-27 18:31N 46°11' W 123°51'56194.3
2016-Aug-27 18:14N 45°37' W 122°48'0 0.0
2016-Aug-27 17:32N 45°37' W 122°48'564181.4
2016-Aug-27 17:31N 46°11' W 123°51'39384.6
2016-Aug-27 17:25N 46°05' W 122°56'3943.6
2016-Aug-27 16:31N 46°11' W 123°51'201213.2
2016-Aug-27 16:30N 46°12' W 123°23'432004.8
2016-Aug-27 16:29N 45°37' W 122°48'29248.8
2016-Aug-27 16:22N 46°05' W 122°56'3946.1
2016-Aug-27 15:31N 46°11' W 123°51'561509.1
2016-Aug-27 15:29N 45°37' W 122°48'29250.6
2016-Aug-27 15:22N 46°05' W 122°56'20320.0
2016-Aug-27 15:18N 46°12' W 123°23'2024.9
2016-Aug-27 14:31N 46°11' W 123°51'561497.8
2016-Aug-27 14:29N 45°37' W 122°48'43242.0
2016-Aug-27 14:18N 46°12' W 123°23'2085.7
2016-Aug-27 14:04N 46°05' W 122°56'3971.3
2016-Aug-27 13:31N 46°11' W 123°51'201303.0
2016-Aug-27 13:30N 46°12' W 123°23'432004.8
2016-Aug-27 13:29N 45°37' W 122°48'2991.0
2016-Aug-27 13:10N 46°05' W 122°56'2945.2
2016-Aug-27 12:32N 45°37' W 122°48'564270.3
2016-Aug-27 12:31N 46°11' W 123°51'201234.5
2016-Aug-27 12:30N 46°12' W 123°23'2071.4
2016-Aug-27 12:13N 46°05' W 122°56'2941.9
2016-Aug-27 11:32N 45°37' W 122°48'564270.1
2016-Aug-27 11:31N 46°11' W 123°51'201192.6
2016-Aug-27 11:30N 46°12' W 123°23'20149.3
2016-Aug-27 11:22N 46°05' W 122°56'3946.2
2016-Aug-27 10:31N 46°11' W 123°51'3910827.1
2016-Aug-27 10:31N 46°05' W 122°56'201526.8
2016-Aug-27 10:30N 46°12' W 123°23'43593.7
2016-Aug-27 10:26N 45°37' W 122°48'5661.1
2016-Aug-27 09:31N 46°11' W 123°51'3912795.3
2016-Aug-27 09:31N 46°05' W 122°56'201593.2
2016-Aug-27 09:30N 46°12' W 123°23'43591.4
2016-Aug-27 09:26N 45°37' W 122°48'5661.2
2016-Aug-27 08:31N 46°11' W 123°51'201153.5
2016-Aug-27 08:30N 46°12' W 123°23'43248.6
2016-Aug-27 08:20N 45°37' W 122°48'0 0.0
2016-Aug-27 07:32N 45°37' W 122°48'564460.1
2016-Aug-27 07:31N 46°11' W 123°51'39736.9
2016-Aug-27 07:28N 46°05' W 122°56'3941.3
2016-Aug-27 06:31N 46°11' W 123°51'56339.0
2016-Aug-27 06:21N 45°37' W 122°48'29152.0
2016-Aug-27 06:10N 46°05' W 122°56'3923.8
2016-Aug-27 04:31N 46°11' W 123°51'56260.0
2016-Aug-27 04:18N 45°37' W 122°48'29722.0
2016-Aug-27 04:16N 46°05' W 122°56'20320.0
2016-Aug-27 04:12N 46°12' W 123°23'4366.3
2016-Aug-27 03:33N 45°37' W 122°48'561568.0
2016-Aug-27 03:31N 46°11' W 123°51'201153.5
2016-Aug-27 03:30N 46°12' W 123°23'20555.2
2016-Aug-27 03:28N 46°05' W 122°56'2929.9
2016-Aug-27 02:30N 45°37' W 122°48'4315436.7
2016-Aug-27 02:30N 46°12' W 123°23'20586.4
2016-Aug-27 02:28N 46°11' W 123°51'3912795.6
2016-Aug-27 02:28N 46°05' W 122°56'3941.3
2016-Aug-27 01:31N 46°11' W 123°51'39714.5
2016-Aug-27 01:28N 46°05' W 122°56'292716.9
2016-Aug-27 01:27N 45°37' W 122°48'43281.2
2016-Aug-27 01:18N 46°12' W 123°23'2025.0
2016-Aug-27 00:31N 46°11' W 123°51'39254.1
2016-Aug-27 00:22N 46°05' W 122°56'292867.8
2016-Aug-27 00:21N 45°37' W 122°48'43791.6
2016-Aug-27 00:18N 46°12' W 123°23'2025.0
2016-Aug-26 23:31N 46°11' W 123°51'563786.9
2016-Aug-26 23:30N 45°37' W 122°48'4314033.4
2016-Aug-26 23:30N 46°12' W 123°23'2086.1
2016-Aug-26 23:16N 46°05' W 122°56'3952.4
2016-Aug-26 22:31N 46°11' W 123°51'563716.8
2016-Aug-26 22:30N 45°37' W 122°48'29732.2
2016-Aug-26 22:28N 46°05' W 122°56'2077.1
2016-Aug-26 22:12N 46°12' W 123°23'4366.4
2016-Aug-26 21:33N 45°37' W 122°48'561592.9
2016-Aug-26 21:31N 46°11' W 123°51'39707.3
2016-Aug-26 21:28N 46°05' W 122°56'2077.1
2016-Aug-26 21:12N 46°12' W 123°23'2028.7
2016-Aug-26 20:31N 46°11' W 123°51'563649.2
2016-Aug-26 20:30N 45°37' W 122°48'29205.3
2016-Aug-26 20:22N 46°05' W 122°56'2077.5
2016-Aug-26 20:06N 46°12' W 123°23'2033.5
2016-Aug-26 19:31N 46°11' W 123°51'201116.9
2016-Aug-26 19:30N 46°12' W 123°23'43442.3
2016-Aug-26 19:24N 45°37' W 122°48'0 0.0
2016-Aug-26 18:33N 45°37' W 122°48'561543.9
2016-Aug-26 18:31N 46°11' W 123°51'2046.7
2016-Aug-26 18:06N 46°12' W 123°23'4378.5
2016-Aug-26 17:33N 45°37' W 122°48'561592.9
2016-Aug-26 17:31N 46°11' W 123°51'397819.5
2016-Aug-26 17:31N 46°05' W 122°56'20178.7
2016-Aug-26 17:24N 46°12' W 123°23'2022.2
2016-Aug-26 16:31N 46°11' W 123°51'563649.2
2016-Aug-26 16:30N 45°37' W 122°48'4311874.4
2016-Aug-26 16:30N 46°12' W 123°23'2019.9
2016-Aug-26 15:31N 46°11' W 123°51'563584.0
2016-Aug-26 15:30N 45°37' W 122°48'29732.2
2016-Aug-26 15:28N 46°05' W 122°56'2931.5
2016-Aug-26 14:33N 45°37' W 122°48'561715.4
2016-Aug-26 14:31N 46°11' W 123°51'201005.2
2016-Aug-26 14:30N 46°12' W 123°23'20148.7
2016-Aug-26 14:22N 46°05' W 122°56'2935.4
2016-Aug-26 13:33N 45°37' W 122°48'561631.8
2016-Aug-26 13:31N 46°11' W 123°51'2061.1
2016-Aug-26 13:12N 46°12' W 123°23'20237.2
2016-Aug-26 13:07N 46°05' W 122°56'3965.7
2016-Aug-26 12:31N 46°11' W 123°51'563649.2
2016-Aug-26 12:30N 45°37' W 122°48'4311874.4
2016-Aug-26 12:30N 46°12' W 123°23'20555.2
2016-Aug-26 12:28N 46°05' W 122°56'2931.5
2016-Aug-26 11:33N 45°37' W 122°48'561686.5
2016-Aug-26 11:31N 46°11' W 123°51'20991.1
2016-Aug-26 11:30N 46°12' W 123°23'20149.3
2016-Aug-26 11:22N 46°05' W 122°56'3946.4
2016-Aug-26 10:31N 46°11' W 123°51'39690.0
2016-Aug-26 10:28N 46°05' W 122°56'292647.2
2016-Aug-26 10:27N 45°37' W 122°48'43812.5
2016-Aug-26 10:24N 46°12' W 123°23'2022.2
2016-Aug-26 09:31N 46°11' W 123°51'563344.9
2016-Aug-26 09:30N 45°37' W 122°48'4314033.4
2016-Aug-26 09:30N 46°12' W 123°23'20149.9
2016-Aug-26 09:22N 46°05' W 122°56'2934.5
2016-Aug-26 08:32N 45°37' W 122°48'564270.3
2016-Aug-26 08:31N 46°11' W 123°51'396119.6
2016-Aug-26 08:31N 46°05' W 122°56'201409.3
2016-Aug-26 08:30N 46°12' W 123°23'2019.9
2016-Aug-26 07:31N 46°11' W 123°51'201019.8
2016-Aug-26 07:30N 46°12' W 123°23'20555.2
2016-Aug-26 07:28N 46°05' W 122°56'29930.1
2016-Aug-26 07:26N 45°37' W 122°48'5661.2
2016-Aug-26 06:31N 46°11' W 123°51'39680.0
2016-Aug-26 06:28N 46°05' W 122°56'29354.8
2016-Aug-26 06:23N 45°37' W 122°48'0 0.0
2016-Aug-26 04:32N 45°37' W 122°48'56888.0
2016-Aug-26 04:28N 46°11' W 123°51'395629.9
2016-Aug-26 04:28N 46°05' W 122°56'2082.5
2016-Aug-26 04:13N 46°12' W 123°23'2028.1
2016-Aug-26 03:31N 46°11' W 123°51'56294.3
2016-Aug-26 03:20N 45°37' W 122°48'29418.0
2016-Aug-26 03:16N 46°05' W 122°56'3952.6
2016-Aug-26 02:31N 46°11' W 123°51'561497.8
2016-Aug-26 02:29N 45°37' W 122°48'29240.7
2016-Aug-26 02:22N 46°05' W 122°56'2934.5
2016-Aug-26 01:32N 45°37' W 122°48'564778.7
2016-Aug-26 01:31N 46°11' W 123°51'394853.5
2016-Aug-26 01:31N 46°05' W 122°56'2929.3
2016-Aug-26 00:32N 45°37' W 122°48'564363.2
2016-Aug-26 00:31N 46°11' W 123°51'39686.6
2016-Aug-26 00:28N 46°05' W 122°56'2930.8
2016-Aug-25 23:32N 45°37' W 122°48'564895.3
2016-Aug-25 23:31N 46°11' W 123°51'39670.2
2016-Aug-25 23:28N 46°05' W 122°56'2930.9
2016-Aug-25 22:32N 45°37' W 122°48'564460.1
2016-Aug-25 22:31N 46°11' W 123°51'39670.2
2016-Aug-25 22:28N 46°05' W 122°56'2930.8
2016-Aug-25 21:32N 45°37' W 122°48'565146.3
2016-Aug-25 21:31N 46°11' W 123°51'39663.9
2016-Aug-25 21:28N 46°05' W 122°56'3941.6
2016-Aug-25 20:31N 46°11' W 123°51'56627.2
2016-Aug-25 20:26N 45°37' W 122°48'29411.3
2016-Aug-25 20:22N 46°05' W 122°56'20138.8
2016-Aug-25 20:13N 46°12' W 123°23'4362.7
2016-Aug-25 19:32N 45°37' W 122°48'565146.3
2016-Aug-25 19:31N 46°11' W 123°51'203909.1
2016-Aug-25 19:31N 46°12' W 123°23'20377.8
2016-Aug-25 19:28N 46°05' W 122°56'3941.5
2016-Aug-25 18:31N 46°11' W 123°51'561454.4
2016-Aug-25 18:29N 45°37' W 122°48'291433.9
2016-Aug-25 18:28N 46°05' W 122°56'2930.8
2016-Aug-25 17:32N 45°37' W 122°48'565017.6
2016-Aug-25 17:31N 46°11' W 123°51'203703.4
2016-Aug-25 17:31N 46°12' W 123°23'20197.5
2016-Aug-25 17:25N 46°05' W 122°56'3943.9
2016-Aug-25 16:31N 46°11' W 123°51'561413.4
2016-Aug-25 16:29N 45°37' W 122°48'291474.9
2016-Aug-25 16:28N 46°05' W 122°56'2082.8
2016-Aug-25 16:13N 46°12' W 123°23'4362.6
2016-Aug-25 15:32N 45°37' W 122°48'565424.5
2016-Aug-25 15:31N 46°11' W 123°51'394540.4
2016-Aug-25 15:31N 46°05' W 122°56'20103.5
2016-Aug-25 15:19N 46°12' W 123°23'0 0.0
2016-Aug-25 14:31N 46°12' W 123°23'431244.9
2016-Aug-25 14:29N 45°37' W 122°48'565281.7
2016-Aug-25 14:28N 46°11' W 123°51'39126.3
2016-Aug-25 14:10N 46°05' W 122°56'2945.5
2016-Aug-25 13:32N 45°37' W 122°48'565424.5
2016-Aug-25 13:31N 46°11' W 123°51'20185.7
2016-Aug-25 13:25N 46°12' W 123°23'204580.4
2016-Aug-25 13:25N 46°05' W 122°56'3943.9
2016-Aug-25 12:31N 46°11' W 123°51'56619.5
2016-Aug-25 12:26N 45°37' W 122°48'29413.0
2016-Aug-25 12:22N 46°05' W 122°56'2082.8
2016-Aug-25 12:07N 46°12' W 123°23'4373.4
2016-Aug-25 11:32N 45°37' W 122°48'565574.8
2016-Aug-25 11:31N 46°11' W 123°51'39108.7
2016-Aug-25 11:10N 46°05' W 122°56'20436.2
2016-Aug-25 11:07N 46°12' W 123°23'4373.4
2016-Aug-25 10:32N 45°37' W 122°48'565903.1
2016-Aug-25 10:31N 46°11' W 123°51'39654.7
2016-Aug-25 10:28N 46°05' W 122°56'2058.8
2016-Aug-25 10:07N 46°12' W 123°23'4373.5
2016-Aug-25 09:32N 45°37' W 122°48'565281.4
2016-Aug-25 09:31N 46°11' W 123°51'39657.7
2016-Aug-25 09:28N 46°05' W 122°56'20138.8
2016-Aug-25 09:19N 46°12' W 123°23'2024.6
2016-Aug-25 08:31N 46°11' W 123°51'203350.7
2016-Aug-25 08:31N 46°12' W 123°23'43506.1
2016-Aug-25 08:26N 45°37' W 122°48'29413.0
2016-Aug-25 08:22N 46°05' W 122°56'2934.5
2016-Aug-25 07:32N 45°37' W 122°48'565734.4
2016-Aug-25 07:31N 46°11' W 123°51'203059.3
2016-Aug-25 07:31N 46°12' W 123°23'206662.3
2016-Aug-25 07:31N 46°05' W 122°56'2929.2
2016-Aug-25 06:32N 45°37' W 122°48'566920.9
2016-Aug-25 06:32N 46°11' W 123°51'20180.4
2016-Aug-25 06:25N 46°12' W 123°23'20197.0
2016-Aug-25 06:19N 46°05' W 122°56'3921.9
2016-Aug-25 04:32N 46°11' W 123°51'56393.5
2016-Aug-25 04:23N 45°37' W 122°48'291518.2
2016-Aug-25 04:22N 46°05' W 122°56'3946.6
2016-Aug-25 03:32N 46°11' W 123°51'561338.0
2016-Aug-25 03:29N 45°37' W 122°48'291474.9
2016-Aug-25 03:28N 46°05' W 122°56'3941.6
2016-Aug-25 02:32N 46°11' W 123°51'56397.4
2016-Aug-25 02:23N 45°37' W 122°48'0 0.0
2016-Aug-25 01:29N 45°37' W 122°48'565575.2
2016-Aug-25 01:29N 46°11' W 123°51'5659.3
2016-Aug-25 00:32N 45°37' W 122°48'566474.4
2016-Aug-25 00:32N 46°11' W 123°51'393433.0
2016-Aug-25 00:31N 46°05' W 122°56'2929.3
2016-Aug-24 23:32N 45°37' W 122°48'566272.1
2016-Aug-24 23:32N 46°11' W 123°51'39240.6
2016-Aug-24 23:22N 46°05' W 122°56'20441.5
2016-Aug-24 23:19N 46°12' W 123°23'4354.7
2016-Aug-24 22:32N 45°37' W 122°48'566690.2
2016-Aug-24 22:32N 46°11' W 123°51'393273.3
2016-Aug-24 22:31N 46°05' W 122°56'20210.0
2016-Aug-24 22:25N 46°12' W 123°23'2021.9
2016-Aug-24 21:32N 46°11' W 123°51'202606.1
2016-Aug-24 21:31N 46°12' W 123°23'43511.1
2016-Aug-24 21:26N 45°37' W 122°48'29240.1
2016-Aug-24 21:19N 46°05' W 122°56'2936.7
2016-Aug-24 20:32N 45°37' W 122°48'567433.5
2016-Aug-24 20:32N 46°11' W 123°51'39348.4
2016-Aug-24 20:25N 46°05' W 122°56'2068.7
2016-Aug-24 20:07N 46°12' W 123°23'4373.4
2016-Aug-24 19:32N 45°37' W 122°48'567433.5
2016-Aug-24 19:32N 46°11' W 123°51'2063.4
2016-Aug-24 19:13N 46°12' W 123°23'4362.7
2016-Aug-24 18:32N 45°37' W 122°48'568028.2
2016-Aug-24 18:32N 46°11' W 123°51'202198.9
2016-Aug-24 18:31N 46°12' W 123°23'206662.3
2016-Aug-24 18:31N 46°05' W 122°56'3939.5
2016-Aug-24 17:32N 46°11' W 123°51'202269.8
2016-Aug-24 17:31N 46°12' W 123°23'431286.4
2016-Aug-24 17:29N 45°37' W 122°48'291496.2
2016-Aug-24 17:28N 46°05' W 122°56'3941.6
2016-Aug-24 16:32N 46°11' W 123°51'202269.8
2016-Aug-24 16:31N 46°12' W 123°23'205637.4
2016-Aug-24 16:31N 46°05' W 122°56'29159.8
2016-Aug-24 16:20N 45°37' W 122°48'0 0.0
2016-Aug-24 15:32N 45°37' W 122°48'566920.9
2016-Aug-24 15:32N 46°11' W 123°51'202345.5
2016-Aug-24 15:31N 46°12' W 123°23'20377.8
2016-Aug-24 15:28N 46°05' W 122°56'3941.7
2016-Aug-24 14:32N 46°11' W 123°51'561320.4
2016-Aug-24 14:29N 45°37' W 122°48'43640.5
2016-Aug-24 14:25N 46°12' W 123°23'20383.7
2016-Aug-24 14:22N 46°05' W 122°56'2934.5
2016-Aug-24 13:32N 45°37' W 122°48'56993.6
2016-Aug-24 13:29N 46°11' W 123°51'20122.8
2016-Aug-24 13:19N 46°12' W 123°23'4354.7
2016-Aug-24 12:32N 45°37' W 122°48'567719.4
2016-Aug-24 12:32N 46°11' W 123°51'202069.5
2016-Aug-24 12:31N 46°12' W 123°23'20381.7
2016-Aug-24 12:28N 46°05' W 122°56'2930.8
2016-Aug-24 11:32N 45°37' W 122°48'567719.4
2016-Aug-24 11:32N 46°11' W 123°51'392932.3
2016-Aug-24 11:31N 46°05' W 122°56'20104.4
2016-Aug-24 11:19N 46°12' W 123°23'4354.7
2016-Aug-24 10:32N 45°37' W 122°48'567433.5
2016-Aug-24 10:32N 46°11' W 123°51'393198.9
2016-Aug-24 10:31N 46°05' W 122°56'20103.4
2016-Aug-24 10:19N 46°12' W 123°23'4354.7
2016-Aug-24 09:32N 45°37' W 122°48'568725.8
2016-Aug-24 09:32N 46°11' W 123°51'39609.3
2016-Aug-24 09:28N 46°05' W 122°56'20139.3
2016-Aug-24 09:19N 46°12' W 123°23'2024.7
2016-Aug-24 08:32N 46°11' W 123°51'201901.8
2016-Aug-24 08:31N 46°12' W 123°23'206107.8
2016-Aug-24 08:31N 46°05' W 122°56'29930.1
2016-Aug-24 08:29N 45°37' W 122°48'0 0.0
2016-Aug-24 07:32N 45°37' W 122°48'568726.3
2016-Aug-24 07:32N 46°11' W 123°51'202132.2
2016-Aug-24 07:31N 46°12' W 123°23'206107.1
2016-Aug-24 07:31N 46°05' W 122°56'2929.2
2016-Aug-24 06:32N 45°37' W 122°48'568726.3
2016-Aug-24 06:32N 46°11' W 123°51'392270.2
2016-Aug-24 06:31N 46°05' W 122°56'20218.8
2016-Aug-24 06:25N 46°12' W 123°23'4322.8
2016-Aug-24 04:32N 45°37' W 122°48'569557.4
2016-Aug-24 04:32N 46°11' W 123°51'201954.5
2016-Aug-24 04:31N 46°12' W 123°23'202364.1
2016-Aug-24 04:31N 46°05' W 122°56'2929.4
2016-Aug-24 03:32N 45°37' W 122°48'5612544.1
2016-Aug-24 03:32N 46°11' W 123°51'5656.1
2016-Aug-24 02:32N 45°37' W 122°48'569557.4
2016-Aug-24 02:32N 46°11' W 123°51'5653.3
2016-Aug-24 01:29N 45°37' W 122°48'5611806.2
2016-Aug-24 01:29N 46°11' W 123°51'5659.0
2016-Aug-24 00:32N 45°37' W 122°48'5613380.4
2016-Aug-24 00:32N 46°11' W 123°51'39230.4
2016-Aug-24 00:22N 46°05' W 122°56'20142.6
2016-Aug-24 00:13N 46°12' W 123°23'4362.7
2016-Aug-23 23:32N 45°37' W 122°48'5611806.2
2016-Aug-23 23:32N 46°11' W 123°51'392132.6
2016-Aug-23 23:31N 46°05' W 122°56'20218.1
2016-Aug-23 23:25N 46°12' W 123°23'4348.5
2016-Aug-23 22:32N 45°37' W 122°48'5610563.5
2016-Aug-23 22:32N 46°11' W 123°51'201759.1
2016-Aug-23 22:31N 46°12' W 123°23'20188.9
2016-Aug-23 22:25N 46°05' W 122°56'2932.7
2016-Aug-23 21:32N 45°37' W 122°48'5616725.5
2016-Aug-23 21:32N 46°11' W 123°51'391954.9
2016-Aug-23 21:31N 46°05' W 122°56'3939.9
2016-Aug-23 20:32N 46°11' W 123°51'201804.2
2016-Aug-23 20:31N 46°12' W 123°23'43182.9
2016-Aug-23 20:17N 45°37' W 122°48'29166.0
2016-Aug-23 20:07N 46°05' W 122°56'3967.3
2016-Aug-23 19:32N 46°11' W 123°51'201563.6
2016-Aug-23 19:31N 46°12' W 123°23'202527.1
2016-Aug-23 19:31N 46°05' W 122°56'29379.6
2016-Aug-23 19:26N 45°37' W 122°48'5661.7
2016-Aug-23 18:32N 46°11' W 123°51'39558.5
2016-Aug-23 18:28N 46°05' W 122°56'20475.9
2016-Aug-23 18:25N 46°12' W 123°23'14106.9
2016-Aug-23 18:17N 46°10' W 123°03'3512518.4
2016-Aug-23 18:17N 45°37' W 122°48'0 0.0
2016-Aug-23 17:32N 45°37' W 122°48'5612544.1
2016-Aug-23 17:32N 46°11' W 123°51'20295.6
2016-Aug-23 17:28N 46°12' W 123°23'14564.5
2016-Aug-23 17:26N 46°10' W 123°03'7260.6
2016-Aug-23 17:25N 46°05' W 122°56'3944.5
2016-Aug-23 16:32N 46°11' W 123°51'391982.4
2016-Aug-23 16:31N 46°05' W 122°56'7289.7
2016-Aug-23 16:29N 46°10' W 123°03'3511382.2
2016-Aug-23 16:29N 45°37' W 122°48'43133.7
2016-Aug-23 16:10N 46°12' W 123°23'4368.1
2016-Aug-23 15:32N 45°37' W 122°48'5613380.4
2016-Aug-23 15:32N 46°11' W 123°51'33779.3
2016-Aug-23 15:29N 46°10' W 123°03'731.9
2016-Aug-23 15:16N 46°05' W 122°56'3953.6
2016-Aug-23 14:32N 46°11' W 123°51'3320002.0
2016-Aug-23 14:32N 46°10' W 123°03'7105.1
2016-Aug-23 14:28N 46°05' W 122°56'291110.1
2016-Aug-23 14:26N 45°37' W 122°48'2931.1
2016-Aug-23 13:31N 46°05' W 122°56'7299.5
2016-Aug-23 13:29N 46°10' W 123°03'336000.6
2016-Aug-23 13:29N 46°11' W 123°51'561180.6
2016-Aug-23 13:26N 45°37' W 122°48'43219.6
2016-Aug-23 13:14N 46°12' W 123°23'0 0.0
2016-Aug-23 12:32N 46°12' W 123°23'439648.0
2016-Aug-23 12:32N 45°37' W 122°48'5614336.1
2016-Aug-23 12:32N 46°11' W 123°51'33774.3
2016-Aug-23 12:29N 46°10' W 123°03'793.4
2016-Aug-23 12:25N 46°05' W 122°56'2023.4
2016-Aug-23 11:32N 46°12' W 123°23'147177.6
2016-Aug-23 11:32N 46°10' W 123°03'3512518.4
2016-Aug-23 11:32N 45°37' W 122°48'5620070.6
2016-Aug-23 11:32N 46°11' W 123°51'391042.6
2016-Aug-23 11:30N 46°05' W 122°56'0 0.0
2016-Aug-23 10:33N 46°05' W 122°56'201163.3
2016-Aug-23 10:32N 46°12' W 123°23'437350.8
2016-Aug-23 10:32N 45°37' W 122°48'5625088.2
2016-Aug-23 10:32N 46°11' W 123°51'3317144.5
2016-Aug-23 10:32N 46°10' W 123°03'7 7.4
2016-Aug-23 09:33N 46°05' W 122°56'201201.4
2016-Aug-23 09:32N 46°12' W 123°23'437350.8
2016-Aug-23 09:32N 45°37' W 122°48'357824.0
2016-Aug-23 09:32N 46°10' W 123°03'33689.7
2016-Aug-23 09:29N 46°11' W 123°51'3942.3
2016-Aug-23 08:33N 46°05' W 122°56'291306.8
2016-Aug-23 08:32N 45°37' W 122°48'5620070.6
2016-Aug-23 08:32N 46°11' W 123°51'3317144.5
2016-Aug-23 08:32N 46°10' W 123°03'1473.5
2016-Aug-23 08:20N 46°12' W 123°23'2026.0
2016-Aug-23 07:33N 46°05' W 122°56'291290.5
2016-Aug-23 07:32N 45°37' W 122°48'5618246.0
2016-Aug-23 07:32N 46°11' W 123°51'3330002.9
2016-Aug-23 07:32N 46°10' W 123°03'1448.0
2016-Aug-23 07:14N 46°12' W 123°23'4360.8
2016-Aug-23 06:32N 45°37' W 122°48'5616725.5
2016-Aug-23 06:32N 46°11' W 123°51'391303.3
2016-Aug-23 06:30N 46°05' W 122°56'7334.1
2016-Aug-23 06:29N 46°10' W 123°03'14344.1
2016-Aug-23 06:26N 46°12' W 123°23'0 0.0
2016-Aug-23 05:32N 46°12' W 123°23'439081.5
2016-Aug-23 05:32N 45°37' W 122°48'29832.6
2016-Aug-23 05:30N 46°05' W 122°56'7361.9
2016-Aug-23 05:29N 46°10' W 123°03'33689.7
2016-Aug-23 05:26N 46°11' W 123°51'2021.9
2016-Aug-23 04:32N 46°12' W 123°23'437718.4
2016-Aug-23 04:32N 45°37' W 122°48'5625088.2
2016-Aug-23 04:32N 46°11' W 123°51'391234.7
2016-Aug-23 04:30N 46°05' W 122°56'7356.9
2016-Aug-23 04:29N 46°10' W 123°03'3536.7
2016-Aug-23 03:32N 45°37' W 122°48'5633450.9
2016-Aug-23 03:32N 46°11' W 123°51'3317144.5
2016-Aug-23 03:32N 46°10' W 123°03'1473.2
2016-Aug-23 03:20N 46°12' W 123°23'20146.6
2016-Aug-23 03:12N 46°05' W 122°56'2943.1
2016-Aug-23 02:32N 45°37' W 122°48'5625088.2
2016-Aug-23 02:32N 46°11' W 123°51'33110.8
2016-Aug-23 02:14N 46°10' W 123°03'3347.7
2016-Aug-23 01:32N 46°11' W 123°51'33219.4
2016-Aug-23 01:23N 46°10' W 123°03'35745.1
2016-Aug-23 01:20N 45°37' W 122°48'2936.6
2016-Aug-23 00:33N 46°05' W 122°56'291749.8
2016-Aug-23 00:32N 45°37' W 122°48'5640141.1
2016-Aug-23 00:32N 46°11' W 123°51'3330002.9
2016-Aug-23 00:32N 46°10' W 123°03'3534.8
2016-Aug-22 23:32N 45°37' W 122°48'5666901.9
2016-Aug-22 23:32N 46°11' W 123°51'33327.9
2016-Aug-22 23:26N 46°10' W 123°03'755.6
2016-Aug-22 23:18N 46°05' W 122°56'3951.0
2016-Aug-22 22:32N 46°11' W 123°51'3315001.5
2016-Aug-22 22:32N 46°10' W 123°03'789.2
2016-Aug-22 22:27N 46°05' W 122°56'291720.7
2016-Aug-22 22:26N 45°37' W 122°48'5662.0
2016-Aug-22 21:32N 46°11' W 123°51'56200705.6
2016-Aug-22 21:32N 45°37' W 122°48'3511380.3
2016-Aug-22 21:32N 46°10' W 123°03'1498.7
2016-Aug-22 21:23N 46°12' W 123°23'20229.0
2016-Aug-22 21:18N 46°05' W 122°56'2026.7
2016-Aug-22 20:32N 46°12' W 123°23'203909.1
2016-Aug-22 20:32N 46°11' W 123°51'3313334.6
2016-Aug-22 20:32N 46°10' W 123°03'35736.4
2016-Aug-22 20:29N 45°37' W 122°48'29101.1
2016-Aug-22 20:12N 46°05' W 122°56'710.8
2016-Aug-22 19:32N 46°10' W 123°03'33685.8
2016-Aug-22 19:29N 46°11' W 123°51'2056.8
2016-Aug-22 19:08N 46°12' W 123°23'2034.6
2016-Aug-22 18:33N 46°05' W 122°56'201744.9
2016-Aug-22 18:32N 46°12' W 123°23'203909.1
2016-Aug-22 18:32N 46°11' W 123°51'3313334.6
2016-Aug-22 18:32N 46°10' W 123°03'35745.1
2016-Aug-22 18:29N 45°37' W 122°48'2930.7
2016-Aug-22 17:33N 46°05' W 122°56'29435.6
2016-Aug-22 17:29N 45°37' W 122°48'56200705.6
2016-Aug-22 17:29N 46°11' W 123°51'3315001.5
2016-Aug-22 17:29N 46°10' W 123°03'7 7.8
2016-Aug-22 16:33N 46°05' W 122°56'392385.6
2016-Aug-22 16:32N 46°11' W 123°51'3313334.6
2016-Aug-22 16:32N 46°10' W 123°03'35736.4
2016-Aug-22 16:29N 45°37' W 122°48'5658.7
2016-Aug-22 15:32N 46°11' W 123°51'56200705.6
2016-Aug-22 15:32N 45°37' W 122°48'3511380.3
2016-Aug-22 15:32N 46°10' W 123°03'7232.7
2016-Aug-22 15:30N 46°05' W 122°56'2929.7
2016-Aug-22 14:32N 45°37' W 122°48'3531295.9
2016-Aug-22 14:32N 46°10' W 123°03'7224.6
2016-Aug-22 14:30N 46°05' W 122°56'392426.8
2016-Aug-22 14:29N 46°11' W 123°51'3335.0
2016-Aug-22 13:32N 46°10' W 123°03'33689.7
2016-Aug-22 13:29N 46°11' W 123°51'56200692.5
2016-Aug-22 13:29N 45°37' W 122°48'29867.6
2016-Aug-22 13:27N 46°05' W 122°56'2931.3
2016-Aug-22 12:32N 45°37' W 122°48'3517883.4
2016-Aug-22 12:32N 46°10' W 123°03'33697.7
2016-Aug-22 12:29N 46°11' W 123°51'39212.0
2016-Aug-22 12:18N 46°05' W 122°56'3951.0
2016-Aug-22 11:32N 46°11' W 123°51'391153.7
2016-Aug-22 11:30N 46°05' W 122°56'291780.0
2016-Aug-22 11:29N 45°37' W 122°48'35673.0
2016-Aug-22 11:26N 46°10' W 123°03'3337.2
2016-Aug-22 10:32N 46°11' W 123°51'561096.8
2016-Aug-22 10:29N 45°37' W 122°48'29341.9
2016-Aug-22 10:24N 46°05' W 122°56'743.1
2016-Aug-22 10:14N 46°10' W 123°03'3347.7
2016-Aug-22 09:32N 46°11' W 123°51'3320001.9
2016-Aug-22 09:32N 46°10' W 123°03'35719.4
2016-Aug-22 09:29N 45°37' W 122°48'29341.9
2016-Aug-22 09:24N 46°05' W 122°56'3945.2
2016-Aug-22 08:32N 46°11' W 123°51'5650176.4
2016-Aug-22 08:32N 45°37' W 122°48'35125183.7
2016-Aug-22 08:32N 46°10' W 123°03'7215.3
2016-Aug-22 08:30N 46°05' W 122°56'2078.0
2016-Aug-22 08:14N 46°12' W 123°23'2027.8
2016-Aug-22 07:32N 46°11' W 123°51'33631.6
2016-Aug-22 07:29N 46°10' W 123°03'35707.3
2016-Aug-22 07:26N 45°37' W 122°48'29882.4
2016-Aug-22 07:24N 46°05' W 122°56'3945.2
2016-Aug-22 06:32N 46°11' W 123°51'5666901.9
2016-Aug-22 06:32N 45°37' W 122°48'35125183.7
2016-Aug-22 06:32N 46°10' W 123°03'7245.8
2016-Aug-22 06:30N 46°05' W 122°56'3940.3
2016-Aug-22 05:32N 46°11' W 123°51'5622300.6
2016-Aug-22 05:32N 45°37' W 122°48'29890.0
2016-Aug-22 05:30N 46°05' W 122°56'7400.9
2016-Aug-22 05:29N 46°10' W 123°03'14147.8
2016-Aug-22 05:23N 46°12' W 123°23'2024.3
2016-Aug-22 04:33N 46°05' W 122°56'392559.1
2016-Aug-22 04:32N 46°11' W 123°51'5633448.7
2016-Aug-22 04:32N 45°37' W 122°48'35687.8
2016-Aug-22 04:29N 46°10' W 123°03'3335.2
2016-Aug-22 03:32N 46°11' W 123°51'56200705.6
2016-Aug-22 03:32N 45°37' W 122°48'3525036.7
2016-Aug-22 03:32N 46°10' W 123°03'754.4
2016-Aug-22 03:24N 46°05' W 122°56'3945.2
2016-Aug-22 02:32N 46°11' W 123°51'33327.9
2016-Aug-22 02:26N 46°10' W 123°03'7215.3
2016-Aug-22 02:24N 46°05' W 122°56'29428.4
2016-Aug-22 02:20N 45°37' W 122°48'43220.2
2016-Aug-22 02:08N 46°12' W 123°23'2032.4
2016-Aug-22 01:32N 46°11' W 123°51'3360005.9
2016-Aug-22 01:32N 46°10' W 123°03'3517883.4
2016-Aug-22 01:32N 45°37' W 122°48'29214.2
2016-Aug-22 01:24N 46°05' W 122°56'3945.3
2016-Aug-22 00:32N 46°11' W 123°51'5620070.6
2016-Aug-22 00:32N 45°37' W 122°48'29874.9
2016-Aug-22 00:30N 46°05' W 122°56'7296.1
2016-Aug-22 00:29N 46°10' W 123°03'3335.5
2016-Aug-21 23:32N 46°11' W 123°51'5622300.6
2016-Aug-21 23:32N 45°37' W 122°48'354172.8
2016-Aug-21 23:32N 46°10' W 123°03'741.4
2016-Aug-21 23:21N 46°05' W 122°56'3948.1
2016-Aug-21 22:32N 46°11' W 123°51'5615438.9
2016-Aug-21 22:32N 45°37' W 122°48'354636.4
2016-Aug-21 22:32N 46°10' W 123°03'741.3
2016-Aug-21 22:21N 46°05' W 122°56'2935.1
2016-Aug-21 21:32N 45°37' W 122°48'354470.8
2016-Aug-21 21:32N 46°10' W 123°03'33845.2
2016-Aug-21 21:29N 46°11' W 123°51'39210.7
2016-Aug-21 21:18N 46°05' W 122°56'2025.9
2016-Aug-21 20:31N 46°12' W 123°23'201526.8
2016-Aug-21 20:30N 46°05' W 122°56'392759.8
2016-Aug-21 20:29N 46°11' W 123°51'333333.7
2016-Aug-21 20:29N 46°10' W 123°03'35374.8
2016-Aug-21 20:23N 45°37' W 122°48'5666.0
2016-Aug-21 19:32N 46°11' W 123°51'332857.4
2016-Aug-21 19:32N 46°10' W 123°03'7271.4
2016-Aug-21 19:30N 46°05' W 122°56'20235.6
2016-Aug-21 19:25N 46°12' W 123°23'43537.9
2016-Aug-21 19:20N 45°37' W 122°48'5669.9
2016-Aug-21 18:32N 46°11' W 123°51'333529.8
2016-Aug-21 18:32N 46°10' W 123°03'7274.3
2016-Aug-21 18:30N 46°05' W 122°56'291720.7
2016-Aug-21 18:29N 45°37' W 122°48'5658.9
2016-Aug-21 17:32N 46°11' W 123°51'5616724.4
2016-Aug-21 17:32N 45°37' W 122°48'355442.8
2016-Aug-21 17:32N 46°10' W 123°03'794.4
2016-Aug-21 17:27N 46°05' W 122°56'20148.7
2016-Aug-21 17:19N 46°12' W 123°23'2025.2
2016-Aug-21 16:32N 46°11' W 123°51'5615438.9
2016-Aug-21 16:32N 45°37' W 122°48'355442.8
2016-Aug-21 16:32N 46°10' W 123°03'731.9
2016-Aug-21 16:18N 46°05' W 122°56'3951.3
2016-Aug-21 15:32N 46°11' W 123°51'5611806.2
2016-Aug-21 15:32N 45°37' W 122°48'432144.0
2016-Aug-21 15:31N 46°12' W 123°23'201526.8
2016-Aug-21 15:30N 46°05' W 122°56'798.7
2016-Aug-21 15:26N 46°10' W 123°03'3337.5
2016-Aug-21 14:32N 46°11' W 123°51'333333.7
2016-Aug-21 14:32N 46°10' W 123°03'35797.3
2016-Aug-21 14:29N 45°37' W 122°48'29860.3
2016-Aug-21 14:27N 46°05' W 122°56'2085.9
2016-Aug-21 14:13N 46°12' W 123°23'2028.9
2016-Aug-21 13:32N 46°11' W 123°51'5615437.9
2016-Aug-21 13:32N 45°37' W 122°48'355442.8
2016-Aug-21 13:32N 46°10' W 123°03'756.9
2016-Aug-21 13:24N 46°05' W 122°56'2933.1
2016-Aug-21 12:32N 45°37' W 122°48'29853.2
2016-Aug-21 12:30N 46°05' W 122°56'393273.3
2016-Aug-21 12:29N 46°11' W 123°51'333243.6
2016-Aug-21 12:29N 46°10' W 123°03'3335.5
2016-Aug-21 11:32N 46°11' W 123°51'5611806.2
2016-Aug-21 11:32N 45°37' W 122°48'355690.2
2016-Aug-21 11:32N 46°10' W 123°03'14216.6
2016-Aug-21 11:28N 46°12' W 123°23'20125.5
2016-Aug-21 11:18N 46°05' W 122°56'3951.3
2016-Aug-21 10:32N 46°11' W 123°51'5610563.5
2016-Aug-21 10:32N 45°37' W 122°48'432237.2
2016-Aug-21 10:31N 46°12' W 123°23'201526.8
2016-Aug-21 10:30N 46°05' W 122°56'799.5
2016-Aug-21 10:26N 46°10' W 123°03'7 8.3
2016-Aug-21 09:33N 46°05' W 122°56'393059.8
2016-Aug-21 09:32N 46°11' W 123°51'5615437.9
2016-Aug-21 09:32N 45°37' W 122°48'35168.5
2016-Aug-21 09:20N 46°10' W 123°03'3342.2
2016-Aug-21 08:32N 46°11' W 123°51'5614336.1
2016-Aug-21 08:32N 45°37' W 122°48'355442.8
2016-Aug-21 08:32N 46°10' W 123°03'14985.2
2016-Aug-21 08:31N 46°12' W 123°23'201559.3
2016-Aug-21 08:30N 46°05' W 122°56'3940.7
2016-Aug-21 07:32N 46°11' W 123°51'20756.6
2016-Aug-21 07:31N 46°12' W 123°23'201593.2
2016-Aug-21 07:30N 46°05' W 122°56'7321.7
2016-Aug-21 07:29N 46°10' W 123°03'35368.2
2016-Aug-21 07:23N 45°37' W 122°48'5666.0
2016-Aug-21 06:32N 46°11' W 123°51'5613380.4
2016-Aug-21 06:32N 45°37' W 122°48'35622.8
2016-Aug-21 06:29N 46°10' W 123°03'1484.4
2016-Aug-21 06:19N 46°12' W 123°23'2025.2
2016-Aug-21 05:32N 46°11' W 123°51'5610563.5
2016-Aug-21 05:32N 45°37' W 122°48'29860.3
2016-Aug-21 05:30N 46°05' W 122°56'201242.1
2016-Aug-21 05:29N 46°12' W 123°23'2020.7
2016-Aug-21 04:32N 46°11' W 123°51'333636.7
2016-Aug-21 04:32N 46°10' W 123°03'7248.2
2016-Aug-21 04:30N 46°05' W 122°56'201263.5
2016-Aug-21 04:29N 46°12' W 123°23'43852.9
2016-Aug-21 04:26N 45°37' W 122°48'5662.3
2016-Aug-21 03:32N 46°11' W 123°51'5611150.3
2016-Aug-21 03:32N 45°37' W 122°48'356259.2
2016-Aug-21 03:32N 46°10' W 123°03'14310.1
2016-Aug-21 03:29N 46°12' W 123°23'20243.5
2016-Aug-21 03:24N 46°05' W 122°56'3945.4
2016-Aug-21 02:32N 46°11' W 123°51'56525.4
2016-Aug-21 02:26N 45°37' W 122°48'357363.7
2016-Aug-21 02:26N 46°10' W 123°03'1497.0
2016-Aug-21 02:17N 46°12' W 123°23'20586.3
2016-Aug-21 02:15N 46°05' W 122°56'3955.2
2016-Aug-21 01:32N 46°11' W 123°51'56517.3
2016-Aug-21 01:26N 45°37' W 122°48'3511380.3
2016-Aug-21 01:26N 46°10' W 123°03'7250.5
2016-Aug-21 01:24N 46°05' W 122°56'3945.4
2016-Aug-21 00:32N 46°11' W 123°51'333871.3
2016-Aug-21 00:32N 46°10' W 123°03'7258.0
2016-Aug-21 00:30N 46°05' W 122°56'29413.0
2016-Aug-21 00:26N 45°37' W 122°48'5662.8
2016-Aug-20 23:33N 46°11' W 123°51'333158.2
2016-Aug-20 23:32N 46°10' W 123°03'3517883.4
2016-Aug-20 23:32N 45°37' W 122°48'291042.8
2016-Aug-20 23:30N 46°05' W 122°56'3940.5
2016-Aug-20 22:32N 46°11' W 123°51'39991.2
2016-Aug-20 22:30N 46°05' W 122°56'29432.0
2016-Aug-20 22:26N 45°37' W 122°48'3513909.3
2016-Aug-20 22:26N 46°10' W 123°03'3337.4
2016-Aug-20 21:32N 46°11' W 123°51'568726.3
2016-Aug-20 21:32N 45°37' W 122°48'358345.6
2016-Aug-20 21:32N 46°10' W 123°03'7253.0
2016-Aug-20 21:30N 46°05' W 122°56'201201.4
2016-Aug-20 21:29N 46°12' W 123°23'2020.7
2016-Aug-20 20:32N 46°11' W 123°51'333000.3
2016-Aug-20 20:32N 46°10' W 123°03'35238.9
2016-Aug-20 20:23N 45°37' W 122°48'29341.9
2016-Aug-20 20:18N 46°05' W 122°56'2094.0
2016-Aug-20 20:05N 46°12' W 123°23'1425.2
2016-Aug-20 19:32N 46°10' W 123°03'7243.5
2016-Aug-20 19:30N 46°05' W 122°56'393909.8
2016-Aug-20 19:29N 46°11' W 123°51'202814.6
2016-Aug-20 19:29N 46°12' W 123°23'43143.1
2016-Aug-20 19:11N 45°37' W 122°48'5686.7
2016-Aug-20 18:32N 46°11' W 123°51'333529.8
2016-Aug-20 18:32N 46°10' W 123°03'14293.8
2016-Aug-20 18:29N 46°12' W 123°23'43431.2
2016-Aug-20 18:23N 45°37' W 122°48'29343.0
2016-Aug-20 18:18N 46°05' W 122°56'3951.5
2016-Aug-20 17:32N 46°11' W 123°51'56525.4
2016-Aug-20 17:26N 45°37' W 122°48'29825.9
2016-Aug-20 17:24N 46°05' W 122°56'20174.9
2016-Aug-20 17:17N 46°12' W 123°23'14260.3
2016-Aug-20 17:14N 46°10' W 123°03'3348.4
2016-Aug-20 16:32N 46°11' W 123°51'568362.7
2016-Aug-20 16:32N 45°37' W 122°48'29853.2
2016-Aug-20 16:30N 46°05' W 122°56'7102.6
2016-Aug-20 16:26N 46°10' W 123°03'1495.2
2016-Aug-20 16:17N 46°12' W 123°23'2027.8
2016-Aug-20 15:33N 46°05' W 122°56'393909.8
2016-Aug-20 15:32N 46°11' W 123°51'568028.2
2016-Aug-20 15:32N 45°37' W 122°48'3513909.3
2016-Aug-20 15:32N 46°10' W 123°03'1456.5
2016-Aug-20 15:17N 46°12' W 123°23'2026.3
2016-Aug-20 14:33N 46°11' W 123°51'566920.9
2016-Aug-20 14:32N 45°37' W 122°48'3513909.3
2016-Aug-20 14:32N 46°10' W 123°03'7236.9
2016-Aug-20 14:30N 46°05' W 122°56'2048.8
2016-Aug-20 14:05N 46°12' W 123°23'2036.0
2016-Aug-20 13:32N 46°11' W 123°51'569122.4
2016-Aug-20 13:32N 45°37' W 122°48'29853.2
2016-Aug-20 13:30N 46°05' W 122°56'201145.1
2016-Aug-20 13:29N 46°12' W 123°23'146280.4
2016-Aug-20 13:29N 46°10' W 123°03'7 7.8
2016-Aug-20 12:33N 46°05' W 122°56'394265.2
2016-Aug-20 12:33N 46°11' W 123°51'33548.0
2016-Aug-20 12:29N 46°10' W 123°03'35358.7
2016-Aug-20 12:23N 45°37' W 122°48'43154367.2
2016-Aug-20 12:23N 46°12' W 123°23'2023.2
2016-Aug-20 11:32N 46°11' W 123°51'567433.5
2016-Aug-20 11:32N 45°37' W 122°48'3513909.3
2016-Aug-20 11:32N 46°10' W 123°03'7241.3
2016-Aug-20 11:30N 46°05' W 122°56'20173.3
2016-Aug-20 11:23N 46°12' W 123°23'2023.2
2016-Aug-20 10:33N 46°11' W 123°51'333428.9
2016-Aug-20 10:32N 46°10' W 123°03'7234.7
2016-Aug-20 10:30N 46°05' W 122°56'291638.7
2016-Aug-20 10:29N 45°37' W 122°48'43286.9
2016-Aug-20 10:20N 46°12' W 123°23'2024.7
2016-Aug-20 09:33N 46°11' W 123°51'202606.1
2016-Aug-20 09:32N 46°12' W 123°23'146280.4
2016-Aug-20 09:32N 46°10' W 123°03'35352.6
2016-Aug-20 09:26N 45°37' W 122°48'29874.9
2016-Aug-20 09:24N 46°05' W 122°56'3945.5
2016-Aug-20 08:33N 46°11' W 123°51'564181.4
2016-Aug-20 08:32N 45°37' W 122°48'43958.8
2016-Aug-20 08:29N 46°12' W 123°23'20621.1
2016-Aug-20 08:27N 46°05' W 122°56'7377.6
2016-Aug-20 08:26N 46°10' W 123°03'3337.5
2016-Aug-20 07:33N 46°11' W 123°51'333428.9
2016-Aug-20 07:32N 46°10' W 123°03'14288.8
2016-Aug-20 07:29N 46°12' W 123°23'43779.7
2016-Aug-20 07:26N 45°37' W 122°48'29983.2
2016-Aug-20 07:24N 46°05' W 122°56'3943.1
2016-Aug-20 06:30N 46°11' W 123°51'333333.7
2016-Aug-20 06:29N 46°10' W 123°03'7234.7
2016-Aug-20 06:27N 46°05' W 122°56'291274.6
2016-Aug-20 06:26N 45°37' W 122°48'5662.9
2016-Aug-20 05:33N 46°11' W 123°51'564096.0
2016-Aug-20 05:32N 45°37' W 122°48'291012.2
2016-Aug-20 05:30N 46°05' W 122°56'7108.1
2016-Aug-20 05:26N 46°10' W 123°03'3337.5
2016-Aug-20 04:33N 46°11' W 123°51'563786.9
2016-Aug-20 04:32N 45°37' W 122°48'29983.2
2016-Aug-20 04:30N 46°05' W 122°56'7407.1
2016-Aug-20 04:29N 46°10' W 123°03'1470.2
2016-Aug-20 04:17N 46°12' W 123°23'2027.8
2016-Aug-20 03:33N 46°05' W 122°56'395212.9
2016-Aug-20 03:33N 46°11' W 123°51'333243.5
2016-Aug-20 03:32N 46°10' W 123°03'14288.8
2016-Aug-20 03:29N 46°12' W 123°23'43783.6
2016-Aug-20 03:26N 45°37' W 122°48'5662.9
2016-Aug-20 02:33N 46°11' W 123°51'20327.3
2016-Aug-20 02:29N 46°12' W 123°23'4311027.5
2016-Aug-20 02:29N 45°37' W 122°48'35749.6
2016-Aug-20 02:26N 46°10' W 123°03'7217.1
2016-Aug-20 02:24N 46°05' W 122°56'0 0.0
2016-Aug-20 01:33N 46°05' W 122°56'396119.6
2016-Aug-20 01:33N 46°11' W 123°51'563584.0
2016-Aug-20 01:32N 45°37' W 122°48'35362.9
2016-Aug-20 01:26N 46°10' W 123°03'3337.5
2016-Aug-20 00:33N 46°11' W 123°51'333333.7
2016-Aug-20 00:32N 46°10' W 123°03'7224.6
2016-Aug-20 00:30N 46°05' W 122°56'29398.6
2016-Aug-20 00:26N 45°37' W 122°48'5663.0
2016-Aug-19 23:33N 46°11' W 123°51'333529.8
2016-Aug-19 23:32N 46°10' W 123°03'35632.2
2016-Aug-19 23:29N 45°37' W 122°48'29367.4
2016-Aug-19 23:24N 46°05' W 122°56'3945.7
2016-Aug-19 22:33N 46°11' W 123°51'333000.3
2016-Aug-19 22:32N 46°10' W 123°03'358345.6
2016-Aug-19 22:32N 45°37' W 122°48'291002.3
2016-Aug-19 22:30N 46°05' W 122°56'3940.9
2016-Aug-19 21:33N 46°11' W 123°51'333000.3
2016-Aug-19 21:32N 46°10' W 123°03'358345.6
2016-Aug-19 21:32N 45°37' W 122°48'43295.2
2016-Aug-19 21:23N 46°12' W 123°23'2023.3
2016-Aug-19 20:33N 46°11' W 123°51'563716.8
2016-Aug-19 20:32N 45°37' W 122°48'291012.2
2016-Aug-19 20:30N 46°05' W 122°56'201221.4
2016-Aug-19 20:29N 46°12' W 123°23'14282.3
2016-Aug-19 20:26N 46°10' W 123°03'3337.4
2016-Aug-19 19:33N 46°11' W 123°51'333158.2
2016-Aug-19 19:32N 46°10' W 123°03'358941.7
2016-Aug-19 19:32N 45°37' W 122°48'43941.3
2016-Aug-19 19:29N 46°12' W 123°23'20152.7
2016-Aug-19 19:21N 46°05' W 122°56'3948.5
2016-Aug-19 18:33N 46°11' W 123°51'563584.0
2016-Aug-19 18:32N 45°37' W 122°48'35240.7
2016-Aug-19 18:23N 46°10' W 123°03'786.6
2016-Aug-19 18:18N 46°05' W 122°56'20174.5
2016-Aug-19 18:11N 46°12' W 123°23'2032.1
2016-Aug-19 17:33N 46°05' W 122°56'397408.0
2016-Aug-19 17:33N 46°11' W 123°51'333000.3
2016-Aug-19 17:32N 46°10' W 123°03'358345.6
2016-Aug-19 17:32N 45°37' W 122°48'4396.1
2016-Aug-19 17:05N 46°12' W 123°23'2036.3
2016-Aug-19 16:33N 46°11' W 123°51'333158.2
2016-Aug-19 16:32N 46°10' W 123°03'35635.5
2016-Aug-19 16:29N 45°37' W 122°48'29366.1
2016-Aug-19 16:24N 46°05' W 122°56'20173.7
2016-Aug-19 16:17N 46°12' W 123°23'2027.8
2016-Aug-19 15:33N 46°05' W 122°56'397037.6
2016-Aug-19 15:33N 46°11' W 123°51'333077.2
2016-Aug-19 15:32N 46°10' W 123°03'14280.7
2016-Aug-19 15:29N 46°12' W 123°23'43771.8
2016-Aug-19 15:26N 45°37' W 122°48'5663.1
2016-Aug-19 14:33N 46°11' W 123°51'333243.6
2016-Aug-19 14:32N 46°10' W 123°03'14273.1
2016-Aug-19 14:29N 46°12' W 123°23'437718.4
2016-Aug-19 14:29N 45°37' W 122°48'29371.4
2016-Aug-19 14:24N 46°05' W 122°56'7 8.4
2016-Aug-19 13:32N 46°10' W 123°03'7213.6
2016-Aug-19 13:30N 46°05' W 122°56'396397.8
2016-Aug-19 13:30N 46°11' W 123°51'201759.1
2016-Aug-19 13:29N 46°12' W 123°23'437350.8
2016-Aug-19 13:29N 45°37' W 122°48'5659.7
2016-Aug-19 12:33N 46°11' W 123°51'333529.8
2016-Aug-19 12:32N 46°10' W 123°03'7205.2
2016-Aug-19 12:30N 46°05' W 122°56'201285.7
2016-Aug-19 12:29N 46°12' W 123°23'438576.0
2016-Aug-19 12:29N 45°37' W 122°48'5659.7
2016-Aug-19 11:33N 46°11' W 123°51'333333.7
2016-Aug-19 11:32N 46°10' W 123°03'355961.1
2016-Aug-19 11:32N 45°37' W 122°48'29125.1
2016-Aug-19 11:18N 46°05' W 122°56'20123.0
2016-Aug-19 11:08N 46°12' W 123°23'2033.2
2016-Aug-19 10:33N 46°11' W 123°51'333333.7
2016-Aug-19 10:32N 46°10' W 123°03'7208.5
2016-Aug-19 10:30N 46°05' W 122°56'291395.1
2016-Aug-19 10:29N 45°37' W 122°48'43935.6
2016-Aug-19 10:26N 46°12' W 123°23'2022.0
2016-Aug-19 09:33N 46°11' W 123°51'563290.0
2016-Aug-19 09:32N 45°37' W 122°48'35370.4
2016-Aug-19 09:26N 46°10' W 123°03'14137.3
2016-Aug-19 09:20N 46°12' W 123°23'20605.7
2016-Aug-19 09:18N 46°05' W 122°56'0 0.0
2016-Aug-19 08:33N 46°05' W 122°56'397819.5
2016-Aug-19 08:33N 46°11' W 123°51'563345.1
2016-Aug-19 08:32N 45°37' W 122°48'35812.9
2016-Aug-19 08:29N 46°10' W 123°03'1469.4
2016-Aug-19 08:17N 46°12' W 123°23'1418.6
2016-Aug-19 07:32N 46°10' W 123°03'354814.8
2016-Aug-19 07:32N 45°37' W 122°48'291002.3
2016-Aug-19 07:30N 46°05' W 122°56'3911729.3
2016-Aug-19 07:30N 46°11' W 123°51'0 0.0
2016-Aug-19 06:33N 46°11' W 123°51'33553.0
2016-Aug-19 06:29N 46°10' W 123°03'14136.9
2016-Aug-19 06:23N 46°12' W 123°23'438124.6
2016-Aug-19 06:23N 45°37' W 122°48'29366.1
2016-Aug-19 06:18N 46°05' W 122°56'0 0.0
2016-Aug-19 05:33N 46°05' W 122°56'396702.5
2016-Aug-19 05:33N 46°11' W 123°51'333000.3
2016-Aug-19 05:32N 46°10' W 123°03'356259.2
2016-Aug-19 05:32N 45°37' W 122°48'43897.5
2016-Aug-19 05:29N 46°12' W 123°23'2020.9
2016-Aug-19 04:33N 46°11' W 123°51'563290.3
2016-Aug-19 04:32N 45°37' W 122°48'35365.0
2016-Aug-19 04:26N 46°10' W 123°03'7215.3
2016-Aug-19 04:24N 46°05' W 122°56'201221.4
2016-Aug-19 04:23N 46°12' W 123°23'2023.3
2016-Aug-19 03:33N 46°11' W 123°51'332927.1
2016-Aug-19 03:32N 46°10' W 123°03'356259.2
2016-Aug-19 03:32N 45°37' W 122°48'29930.1
2016-Aug-19 03:30N 46°05' W 122°56'201221.4
2016-Aug-19 03:29N 46°12' W 123°23'2020.8
2016-Aug-19 02:33N 46°11' W 123°51'563290.3
2016-Aug-19 02:32N 45°37' W 122°48'35829.0
2016-Aug-19 02:29N 46°10' W 123°03'783.2
2016-Aug-19 02:24N 46°05' W 122°56'2094.1
2016-Aug-19 02:11N 46°12' W 123°23'2030.6
2016-Aug-19 01:33N 46°11' W 123°51'39853.0
2016-Aug-19 01:30N 46°05' W 122°56'29236.8
2016-Aug-19 01:23N 45°37' W 122°48'35244.0
2016-Aug-19 01:14N 46°10' W 123°03'710.5
2016-Aug-19 00:33N 46°05' W 122°56'3911729.3
2016-Aug-19 00:33N 46°11' W 123°51'333243.6
2016-Aug-19 00:32N 46°10' W 123°03'35134.9
2016-Aug-19 00:17N 45°37' W 122°48'5676.2
2016-Aug-18 23:33N 46°11' W 123°51'333750.4
2016-Aug-18 23:32N 46°10' W 123°03'353681.9
2016-Aug-18 23:32N 45°37' W 122°48'29160.8
2016-Aug-18 23:21N 46°05' W 122°56'3948.7
2016-Aug-18 22:33N 46°11' W 123°51'333333.7
2016-Aug-18 22:32N 46°10' W 123°03'354316.7
2016-Aug-18 22:32N 45°37' W 122°48'5656.8
2016-Aug-18 21:33N 46°11' W 123°51'56815.9
2016-Aug-18 21:29N 45°37' W 122°48'29368.7
2016-Aug-18 21:24N 46°05' W 122°56'7113.4
2016-Aug-18 21:20N 46°10' W 123°03'1491.0
2016-Aug-18 21:11N 46°12' W 123°23'2030.7
2016-Aug-18 20:33N 46°11' W 123°51'563041.0
2016-Aug-18 20:32N 45°37' W 122°48'35181.7
2016-Aug-18 20:20N 46°10' W 123°03'7197.4
2016-Aug-18 20:18N 46°05' W 122°56'20174.1
2016-Aug-18 20:11N 46°12' W 123°23'1421.6
2016-Aug-18 19:32N 46°10' W 123°03'353681.9
2016-Aug-18 19:32N 45°37' W 122°48'291012.2
2016-Aug-18 19:30N 46°05' W 122°56'3911729.3
2016-Aug-18 19:30N 46°11' W 123°51'5557.3
2016-Aug-18 18:32N 45°41' W 122°46'3257596.1
2016-Aug-18 18:32N 46°10' W 123°03'7195.9
2016-Aug-18 18:30N 46°05' W 122°56'3910053.7
2016-Aug-18 18:30N 46°11' W 123°51'201436.0
2016-Aug-18 18:29N 46°12' W 123°23'1414.8
2016-Aug-18 17:32N 46°10' W 123°03'33869.7
2016-Aug-18 17:30N 46°11' W 123°51'55768.7
2016-Aug-18 17:26N 45°41' W 122°46'26939.6
2016-Aug-18 17:24N 46°05' W 122°56'201221.4
2016-Aug-18 17:23N 46°12' W 123°23'2023.4
2016-Aug-18 16:33N 46°11' W 123°51'333333.7
2016-Aug-18 16:32N 46°10' W 123°03'331698.5
2016-Aug-18 16:31N 45°40' W 122°46'261449.2
2016-Aug-18 16:30N 46°05' W 122°56'20174.5
2016-Aug-18 16:23N 46°12' W 123°23'2023.4
2016-Aug-18 15:33N 46°11' W 123°51'333428.9
2016-Aug-18 15:32N 46°10' W 123°03'14259.0
2016-Aug-18 15:29N 46°12' W 123°23'417760.3
2016-Aug-18 15:29N 45°41' W 122°46'26143.7
2016-Aug-18 15:18N 46°05' W 122°56'2837.5
2016-Aug-18 14:33N 45°38' W 122°47'5612561.1
2016-Aug-18 14:33N 46°11' W 123°51'333000.3
2016-Aug-18 14:32N 46°10' W 123°03'7193.0
2016-Aug-18 14:30N 46°05' W 122°56'2094.0
2016-Aug-18 14:17N 46°12' W 123°23'2026.6
2016-Aug-18 13:33N 46°11' W 123°51'332927.1
2016-Aug-18 13:32N 46°10' W 123°03'  
Track history (hours):
 
Tides and Currents Weather Stations Pressure Air Temp Water Temp Dewpoint Dewpoint Depression Visibility Wind Speed Wind Dir Waves Ship Positions

Zarling

Owner: Clean Rivers Co-op, Portland, OR. More information available from US FCC via Universal Licensing System.

Last reported at 2016-Aug-28 13:32 UTC. Time now 2016-Aug-28 13:59 UTC.
Position N 45°37' W 122°48'.

Length 12 m.

Type: Pollution control. MMSI: 3699126.

Date/timePositionNaut miles runAvg speedWind from/ knotsBaromVisibWave heightAir tempDewpointWater temp
2016-Aug-28 13:32N 45°37' W 122°48'292064.8
2016-Aug-28 13:31N 46°05' W 122°56'39760.8
2016-Aug-28 13:28N 46°11' W 123°51'0 0.0
2016-Aug-28 12:31N 46°11' W 123°51'561672.4
2016-Aug-28 12:29N 45°37' W 122°48'5657.7
2016-Aug-28 11:31N 46°11' W 123°51'561618.6
2016-Aug-28 11:29N 45°37' W 122°48'291911.9
2016-Aug-28 11:28N 46°05' W 122°56'2930.6
2016-Aug-28 10:32N 45°37' W 122°48'563786.9
2016-Aug-28 10:31N 46°11' W 123°51'39156.7
2016-Aug-28 10:16N 46°05' W 122°56'2939.0
2016-Aug-28 09:32N 45°37' W 122°48'564181.4
2016-Aug-28 09:31N 46°11' W 123°51'5656.6
2016-Aug-28 08:32N 45°37' W 122°48'563716.8
2016-Aug-28 08:31N 46°11' W 123°51'39777.6
2016-Aug-28 08:28N 46°05' W 122°56'2930.7
2016-Aug-28 07:32N 45°37' W 122°48'563584.0
2016-Aug-28 07:31N 46°11' W 123°51'39799.7
2016-Aug-28 07:28N 46°05' W 122°56'2930.7
2016-Aug-28 06:32N 45°37' W 122°48'563649.2
2016-Aug-28 06:31N 46°11' W 123°51'39261.6
2016-Aug-28 06:22N 46°05' W 122°56'2934.4
2016-Aug-28 05:32N 45°37' W 122°48'563521.2
2016-Aug-28 05:31N 46°11' W 123°51'5656.6
2016-Aug-28 04:32N 45°37' W 122°48'563859.5
2016-Aug-28 04:31N 46°11' W 123°51'0 0.0
2016-Aug-28 03:31N 46°11' W 123°51'56641.2
2016-Aug-28 03:26N 45°37' W 122°48'29175.0
2016-Aug-28 03:16N 46°05' W 122°56'20124.0
2016-Aug-28 03:06N 46°12' W 123°23'2033.4
2016-Aug-28 02:31N 46°11' W 123°51'561568.0
2016-Aug-28 02:29N 45°37' W 122°48'43543.5
2016-Aug-28 02:24N 46°12' W 123°23'20149.3
2016-Aug-28 02:16N 46°05' W 122°56'2939.0
2016-Aug-28 01:32N 45°37' W 122°48'564014.1
2016-Aug-28 01:31N 46°11' W 123°51'201379.7
2016-Aug-28 01:30N 46°12' W 123°23'20149.3
2016-Aug-28 01:22N 46°05' W 122°56'2934.3
2016-Aug-28 00:32N 45°37' W 122°48'563935.4
2016-Aug-28 00:31N 46°11' W 123°51'39769.1
2016-Aug-28 00:28N 46°05' W 122°56'20321.4
2016-Aug-28 00:24N 46°12' W 123°23'4349.1
2016-Aug-27 23:32N 45°37' W 122°48'564181.4
2016-Aug-27 23:31N 46°11' W 123°51'39773.4
2016-Aug-27 23:28N 46°05' W 122°56'2077.4
2016-Aug-27 23:12N 46°12' W 123°23'2028.5
2016-Aug-27 22:31N 46°11' W 123°51'201436.0
2016-Aug-27 22:30N 46°12' W 123°23'2086.2
2016-Aug-27 22:16N 46°05' W 122°56'29800.3
2016-Aug-27 22:14N 45°37' W 122°48'5678.1
2016-Aug-27 21:31N 46°11' W 123°51'561580.4
2016-Aug-27 21:29N 45°37' W 122°48'29248.8
2016-Aug-27 21:22N 46°05' W 122°56'2023.6
2016-Aug-27 20:30N 46°12' W 123°23'432031.1
2016-Aug-27 20:29N 45°37' W 122°48'563786.9
2016-Aug-27 20:28N 46°11' W 123°51'5659.5
2016-Aug-27 19:32N 45°37' W 122°48'564096.0
2016-Aug-27 19:31N 46°11' W 123°51'3970375.9
2016-Aug-27 19:31N 46°05' W 122°56'201437.1
2016-Aug-27 19:30N 46°12' W 123°23'2019.9
2016-Aug-27 18:31N 46°11' W 123°51'56194.3
2016-Aug-27 18:14N 45°37' W 122°48'0 0.0
2016-Aug-27 17:32N 45°37' W 122°48'564181.4
2016-Aug-27 17:31N 46°11' W 123°51'39384.6
2016-Aug-27 17:25N 46°05' W 122°56'3943.6
2016-Aug-27 16:31N 46°11' W 123°51'201213.2
2016-Aug-27 16:30N 46°12' W 123°23'432004.8
2016-Aug-27 16:29N 45°37' W 122°48'29248.8
2016-Aug-27 16:22N 46°05' W 122°56'3946.1
2016-Aug-27 15:31N 46°11' W 123°51'561509.1
2016-Aug-27 15:29N 45°37' W 122°48'29250.6
2016-Aug-27 15:22N 46°05' W 122°56'20320.0
2016-Aug-27 15:18N 46°12' W 123°23'2024.9
2016-Aug-27 14:31N 46°11' W 123°51'561497.8
2016-Aug-27 14:29N 45°37' W 122°48'43242.0
2016-Aug-27 14:18N 46°12' W 123°23'2085.7
2016-Aug-27 14:04N 46°05' W 122°56'3971.3
2016-Aug-27 13:31N 46°11' W 123°51'201303.0
2016-Aug-27 13:30N 46°12' W 123°23'432004.8
2016-Aug-27 13:29N 45°37' W 122°48'2991.0
2016-Aug-27 13:10N 46°05' W 122°56'2945.2
2016-Aug-27 12:32N 45°37' W 122°48'564270.3
2016-Aug-27 12:31N 46°11' W 123°51'201234.5
2016-Aug-27 12:30N 46°12' W 123°23'2071.4
2016-Aug-27 12:13N 46°05' W 122°56'2941.9
2016-Aug-27 11:32N 45°37' W 122°48'564270.1
2016-Aug-27 11:31N 46°11' W 123°51'201192.6
2016-Aug-27 11:30N 46°12' W 123°23'20149.3
2016-Aug-27 11:22N 46°05' W 122°56'3946.2
2016-Aug-27 10:31N 46°11' W 123°51'3910827.1
2016-Aug-27 10:31N 46°05' W 122°56'201526.8
2016-Aug-27 10:30N 46°12' W 123°23'43593.7
2016-Aug-27 10:26N 45°37' W 122°48'5661.1
2016-Aug-27 09:31N 46°11' W 123°51'3912795.3
2016-Aug-27 09:31N 46°05' W 122°56'201593.2
2016-Aug-27 09:30N 46°12' W 123°23'43591.4
2016-Aug-27 09:26N 45°37' W 122°48'5661.2
2016-Aug-27 08:31N 46°11' W 123°51'201153.5
2016-Aug-27 08:30N 46°12' W 123°23'43248.6
2016-Aug-27 08:20N 45°37' W 122°48'0 0.0
2016-Aug-27 07:32N 45°37' W 122°48'564460.1
2016-Aug-27 07:31N 46°11' W 123°51'39736.9
2016-Aug-27 07:28N 46°05' W 122°56'3941.3
2016-Aug-27 06:31N 46°11' W 123°51'56339.0
2016-Aug-27 06:21N 45°37' W 122°48'29152.0
2016-Aug-27 06:10N 46°05' W 122°56'3923.8
2016-Aug-27 04:31N 46°11' W 123°51'56260.0
2016-Aug-27 04:18N 45°37' W 122°48'29722.0
2016-Aug-27 04:16N 46°05' W 122°56'20320.0
2016-Aug-27 04:12N 46°12' W 123°23'4366.3
2016-Aug-27 03:33N 45°37' W 122°48'561568.0
2016-Aug-27 03:31N 46°11' W 123°51'201153.5
2016-Aug-27 03:30N 46°12' W 123°23'20555.2
2016-Aug-27 03:28N 46°05' W 122°56'2929.9
2016-Aug-27 02:30N 45°37' W 122°48'4315436.7
2016-Aug-27 02:30N 46°12' W 123°23'20586.4
2016-Aug-27 02:28N 46°11' W 123°51'3912795.6
2016-Aug-27 02:28N 46°05' W 122°56'3941.3
2016-Aug-27 01:31N 46°11' W 123°51'39714.5
2016-Aug-27 01:28N 46°05' W 122°56'292716.9
2016-Aug-27 01:27N 45°37' W 122°48'43281.2
2016-Aug-27 01:18N 46°12' W 123°23'2025.0
2016-Aug-27 00:31N 46°11' W 123°51'39254.1
2016-Aug-27 00:22N 46°05' W 122°56'292867.8
2016-Aug-27 00:21N 45°37' W 122°48'43791.6
2016-Aug-27 00:18N 46°12' W 123°23'2025.0
2016-Aug-26 23:31N 46°11' W 123°51'563786.9
2016-Aug-26 23:30N 45°37' W 122°48'4314033.4
2016-Aug-26 23:30N 46°12' W 123°23'2086.1
2016-Aug-26 23:16N 46°05' W 122°56'3952.4
2016-Aug-26 22:31N 46°11' W 123°51'563716.8
2016-Aug-26 22:30N 45°37' W 122°48'29732.2
2016-Aug-26 22:28N 46°05' W 122°56'2077.1
2016-Aug-26 22:12N 46°12' W 123°23'4366.4
2016-Aug-26 21:33N 45°37' W 122°48'561592.9
2016-Aug-26 21:31N 46°11' W 123°51'39707.3
2016-Aug-26 21:28N 46°05' W 122°56'2077.1
2016-Aug-26 21:12N 46°12' W 123°23'2028.7
2016-Aug-26 20:31N 46°11' W 123°51'563649.2
2016-Aug-26 20:30N 45°37' W 122°48'29205.3
2016-Aug-26 20:22N 46°05' W 122°56'2077.5
2016-Aug-26 20:06N 46°12' W 123°23'2033.5
2016-Aug-26 19:31N 46°11' W 123°51'201116.9
2016-Aug-26 19:30N 46°12' W 123°23'43442.3
2016-Aug-26 19:24N 45°37' W 122°48'0 0.0
2016-Aug-26 18:33N 45°37' W 122°48'561543.9
2016-Aug-26 18:31N 46°11' W 123°51'2046.7
2016-Aug-26 18:06N 46°12' W 123°23'4378.5
2016-Aug-26 17:33N 45°37' W 122°48'561592.9
2016-Aug-26 17:31N 46°11' W 123°51'397819.5
2016-Aug-26 17:31N 46°05' W 122°56'20178.7
2016-Aug-26 17:24N 46°12' W 123°23'2022.2
2016-Aug-26 16:31N 46°11' W 123°51'563649.2
2016-Aug-26 16:30N 45°37' W 122°48'4311874.4
2016-Aug-26 16:30N 46°12' W 123°23'2019.9
2016-Aug-26 15:31N 46°11' W 123°51'563584.0
2016-Aug-26 15:30N 45°37' W 122°48'29732.2
2016-Aug-26 15:28N 46°05' W 122°56'2931.5
2016-Aug-26 14:33N 45°37' W 122°48'561715.4
2016-Aug-26 14:31N 46°11' W 123°51'201005.2
2016-Aug-26 14:30N 46°12' W 123°23'20148.7
2016-Aug-26 14:22N 46°05' W 122°56'2935.4
2016-Aug-26 13:33N 45°37' W 122°48'561631.8
2016-Aug-26 13:31N 46°11' W 123°51'2061.1
2016-Aug-26 13:12N 46°12' W 123°23'20237.2
2016-Aug-26 13:07N 46°05' W 122°56'3965.7
2016-Aug-26 12:31N 46°11' W 123°51'563649.2
2016-Aug-26 12:30N 45°37' W 122°48'4311874.4
2016-Aug-26 12:30N 46°12' W 123°23'20555.2
2016-Aug-26 12:28N 46°05' W 122°56'2931.5
2016-Aug-26 11:33N 45°37' W 122°48'561686.5
2016-Aug-26 11:31N 46°11' W 123°51'20991.1
2016-Aug-26 11:30N 46°12' W 123°23'20149.3
2016-Aug-26 11:22N 46°05' W 122°56'3946.4
2016-Aug-26 10:31N 46°11' W 123°51'39690.0
2016-Aug-26 10:28N 46°05' W 122°56'292647.2
2016-Aug-26 10:27N 45°37' W 122°48'43812.5
2016-Aug-26 10:24N 46°12' W 123°23'2022.2
2016-Aug-26 09:31N 46°11' W 123°51'563344.9
2016-Aug-26 09:30N 45°37' W 122°48'4314033.4
2016-Aug-26 09:30N 46°12' W 123°23'20149.9
2016-Aug-26 09:22N 46°05' W 122°56'2934.5
2016-Aug-26 08:32N 45°37' W 122°48'564270.3
2016-Aug-26 08:31N 46°11' W 123°51'396119.6
2016-Aug-26 08:31N 46°05' W 122°56'201409.3
2016-Aug-26 08:30N 46°12' W 123°23'2019.9
2016-Aug-26 07:31N 46°11' W 123°51'201019.8
2016-Aug-26 07:30N 46°12' W 123°23'20555.2
2016-Aug-26 07:28N 46°05' W 122°56'29930.1
2016-Aug-26 07:26N 45°37' W 122°48'5661.2
2016-Aug-26 06:31N 46°11' W 123°51'39680.0
2016-Aug-26 06:28N 46°05' W 122°56'29354.8
2016-Aug-26 06:23N 45°37' W 122°48'0 0.0
2016-Aug-26 04:32N 45°37' W 122°48'56888.0
2016-Aug-26 04:28N 46°11' W 123°51'395629.9
2016-Aug-26 04:28N 46°05' W 122°56'2082.5
2016-Aug-26 04:13N 46°12' W 123°23'2028.1
2016-Aug-26 03:31N 46°11' W 123°51'56294.3
2016-Aug-26 03:20N 45°37' W 122°48'29418.0
2016-Aug-26 03:16N 46°05' W 122°56'3952.6
2016-Aug-26 02:31N 46°11' W 123°51'561497.8
2016-Aug-26 02:29N 45°37' W 122°48'29240.7
2016-Aug-26 02:22N 46°05' W 122°56'2934.5
2016-Aug-26 01:32N 45°37' W 122°48'564778.7
2016-Aug-26 01:31N 46°11' W 123°51'394853.5
2016-Aug-26 01:31N 46°05' W 122°56'2929.3
2016-Aug-26 00:32N 45°37' W 122°48'564363.2
2016-Aug-26 00:31N 46°11' W 123°51'39686.6
2016-Aug-26 00:28N 46°05' W 122°56'2930.8
2016-Aug-25 23:32N 45°37' W 122°48'564895.3
2016-Aug-25 23:31N 46°11' W 123°51'39670.2
2016-Aug-25 23:28N 46°05' W 122°56'2930.9
2016-Aug-25 22:32N 45°37' W 122°48'564460.1
2016-Aug-25 22:31N 46°11' W 123°51'39670.2
2016-Aug-25 22:28N 46°05' W 122°56'2930.8
2016-Aug-25 21:32N 45°37' W 122°48'565146.3
2016-Aug-25 21:31N 46°11' W 123°51'39663.9
2016-Aug-25 21:28N 46°05' W 122°56'3941.6
2016-Aug-25 20:31N 46°11' W 123°51'56627.2
2016-Aug-25 20:26N 45°37' W 122°48'29411.3
2016-Aug-25 20:22N 46°05' W 122°56'20138.8
2016-Aug-25 20:13N 46°12' W 123°23'4362.7
2016-Aug-25 19:32N 45°37' W 122°48'565146.3
2016-Aug-25 19:31N 46°11' W 123°51'203909.1
2016-Aug-25 19:31N 46°12' W 123°23'20377.8
2016-Aug-25 19:28N 46°05' W 122°56'3941.5
2016-Aug-25 18:31N 46°11' W 123°51'561454.4
2016-Aug-25 18:29N 45°37' W 122°48'291433.9
2016-Aug-25 18:28N 46°05' W 122°56'2930.8
2016-Aug-25 17:32N 45°37' W 122°48'565017.6
2016-Aug-25 17:31N 46°11' W 123°51'203703.4
2016-Aug-25 17:31N 46°12' W 123°23'20197.5
2016-Aug-25 17:25N 46°05' W 122°56'3943.9
2016-Aug-25 16:31N 46°11' W 123°51'561413.4
2016-Aug-25 16:29N 45°37' W 122°48'291474.9
2016-Aug-25 16:28N 46°05' W 122°56'2082.8
2016-Aug-25 16:13N 46°12' W 123°23'4362.6
2016-Aug-25 15:32N 45°37' W 122°48'565424.5
2016-Aug-25 15:31N 46°11' W 123°51'394540.4
2016-Aug-25 15:31N 46°05' W 122°56'20103.5
2016-Aug-25 15:19N 46°12' W 123°23'0 0.0
2016-Aug-25 14:31N 46°12' W 123°23'431244.9
2016-Aug-25 14:29N 45°37' W 122°48'565281.7
2016-Aug-25 14:28N 46°11' W 123°51'39126.3
2016-Aug-25 14:10N 46°05' W 122°56'2945.5
2016-Aug-25 13:32N 45°37' W 122°48'565424.5
2016-Aug-25 13:31N 46°11' W 123°51'20185.7
2016-Aug-25 13:25N 46°12' W 123°23'204580.4
2016-Aug-25 13:25N 46°05' W 122°56'3943.9
2016-Aug-25 12:31N 46°11' W 123°51'56619.5
2016-Aug-25 12:26N 45°37' W 122°48'29413.0
2016-Aug-25 12:22N 46°05' W 122°56'2082.8
2016-Aug-25 12:07N 46°12' W 123°23'4373.4
2016-Aug-25 11:32N 45°37' W 122°48'565574.8
2016-Aug-25 11:31N 46°11' W 123°51'39108.7
2016-Aug-25 11:10N 46°05' W 122°56'20436.2
2016-Aug-25 11:07N 46°12' W 123°23'4373.4
2016-Aug-25 10:32N 45°37' W 122°48'565903.1
2016-Aug-25 10:31N 46°11' W 123°51'39654.7
2016-Aug-25 10:28N 46°05' W 122°56'2058.8
2016-Aug-25 10:07N 46°12' W 123°23'4373.5
2016-Aug-25 09:32N 45°37' W 122°48'565281.4
2016-Aug-25 09:31N 46°11' W 123°51'39657.7
2016-Aug-25 09:28N 46°05' W 122°56'20138.8
2016-Aug-25 09:19N 46°12' W 123°23'2024.6
2016-Aug-25 08:31N 46°11' W 123°51'203350.7
2016-Aug-25 08:31N 46°12' W 123°23'43506.1
2016-Aug-25 08:26N 45°37' W 122°48'29413.0
2016-Aug-25 08:22N 46°05' W 122°56'2934.5
2016-Aug-25 07:32N 45°37' W 122°48'565734.4
2016-Aug-25 07:31N 46°11' W 123°51'203059.3
2016-Aug-25 07:31N 46°12' W 123°23'206662.3
2016-Aug-25 07:31N 46°05' W 122°56'2929.2
2016-Aug-25 06:32N 45°37' W 122°48'566920.9
2016-Aug-25 06:32N 46°11' W 123°51'20180.4
2016-Aug-25 06:25N 46°12' W 123°23'20197.0
2016-Aug-25 06:19N 46°05' W 122°56'3921.9
2016-Aug-25 04:32N 46°11' W 123°51'56393.5
2016-Aug-25 04:23N 45°37' W 122°48'291518.2
2016-Aug-25 04:22N 46°05' W 122°56'3946.6
2016-Aug-25 03:32N 46°11' W 123°51'561338.0
2016-Aug-25 03:29N 45°37' W 122°48'291474.9
2016-Aug-25 03:28N 46°05' W 122°56'3941.6
2016-Aug-25 02:32N 46°11' W 123°51'56397.4
2016-Aug-25 02:23N 45°37' W 122°48'0 0.0
2016-Aug-25 01:29N 45°37' W 122°48'565575.2
2016-Aug-25 01:29N 46°11' W 123°51'5659.3
2016-Aug-25 00:32N 45°37' W 122°48'566474.4
2016-Aug-25 00:32N 46°11' W 123°51'393433.0
2016-Aug-25 00:31N 46°05' W 122°56'2929.3
2016-Aug-24 23:32N 45°37' W 122°48'566272.1
2016-Aug-24 23:32N 46°11' W 123°51'39240.6
2016-Aug-24 23:22N 46°05' W 122°56'20441.5
2016-Aug-24 23:19N 46°12' W 123°23'4354.7
2016-Aug-24 22:32N 45°37' W 122°48'566690.2
2016-Aug-24 22:32N 46°11' W 123°51'393273.3
2016-Aug-24 22:31N 46°05' W 122°56'20210.0
2016-Aug-24 22:25N 46°12' W 123°23'2021.9
2016-Aug-24 21:32N 46°11' W 123°51'202606.1
2016-Aug-24 21:31N 46°12' W 123°23'43511.1
2016-Aug-24 21:26N 45°37' W 122°48'29240.1
2016-Aug-24 21:19N 46°05' W 122°56'2936.7
2016-Aug-24 20:32N 45°37' W 122°48'567433.5
2016-Aug-24 20:32N 46°11' W 123°51'39348.4
2016-Aug-24 20:25N 46°05' W 122°56'2068.7
2016-Aug-24 20:07N 46°12' W 123°23'4373.4
2016-Aug-24 19:32N 45°37' W 122°48'567433.5
2016-Aug-24 19:32N 46°11' W 123°51'2063.4
2016-Aug-24 19:13N 46°12' W 123°23'4362.7
2016-Aug-24 18:32N 45°37' W 122°48'568028.2
2016-Aug-24 18:32N 46°11' W 123°51'202198.9
2016-Aug-24 18:31N 46°12' W 123°23'206662.3
2016-Aug-24 18:31N 46°05' W 122°56'3939.5
2016-Aug-24 17:32N 46°11' W 123°51'202269.8
2016-Aug-24 17:31N 46°12' W 123°23'431286.4
2016-Aug-24 17:29N 45°37' W 122°48'291496.2
2016-Aug-24 17:28N 46°05' W 122°56'3941.6
2016-Aug-24 16:32N 46°11' W 123°51'202269.8
2016-Aug-24 16:31N 46°12' W 123°23'205637.4
2016-Aug-24 16:31N 46°05' W 122°56'29159.8
2016-Aug-24 16:20N 45°37' W 122°48'0 0.0
2016-Aug-24 15:32N 45°37' W 122°48'566920.9
2016-Aug-24 15:32N 46°11' W 123°51'202345.5
2016-Aug-24 15:31N 46°12' W 123°23'20377.8
2016-Aug-24 15:28N 46°05' W 122°56'3941.7
2016-Aug-24 14:32N 46°11' W 123°51'561320.4
2016-Aug-24 14:29N 45°37' W 122°48'43640.5
2016-Aug-24 14:25N 46°12' W 123°23'20383.7
2016-Aug-24 14:22N 46°05' W 122°56'2934.5
2016-Aug-24 13:32N 45°37' W 122°48'56993.6
2016-Aug-24 13:29N 46°11' W 123°51'20122.8
2016-Aug-24 13:19N 46°12' W 123°23'4354.7
2016-Aug-24 12:32N 45°37' W 122°48'567719.4
2016-Aug-24 12:32N 46°11' W 123°51'202069.5
2016-Aug-24 12:31N 46°12' W 123°23'20381.7
2016-Aug-24 12:28N 46°05' W 122°56'2930.8
2016-Aug-24 11:32N 45°37' W 122°48'567719.4
2016-Aug-24 11:32N 46°11' W 123°51'392932.3
2016-Aug-24 11:31N 46°05' W 122°56'20104.4
2016-Aug-24 11:19N 46°12' W 123°23'4354.7
2016-Aug-24 10:32N 45°37' W 122°48'567433.5
2016-Aug-24 10:32N 46°11' W 123°51'393198.9
2016-Aug-24 10:31N 46°05' W 122°56'20103.4
2016-Aug-24 10:19N 46°12' W 123°23'4354.7
2016-Aug-24 09:32N 45°37' W 122°48'568725.8
2016-Aug-24 09:32N 46°11' W 123°51'39609.3
2016-Aug-24 09:28N 46°05' W 122°56'20139.3
2016-Aug-24 09:19N 46°12' W 123°23'2024.7
2016-Aug-24 08:32N 46°11' W 123°51'201901.8
2016-Aug-24 08:31N 46°12' W 123°23'206107.8
2016-Aug-24 08:31N 46°05' W 122°56'29930.1
2016-Aug-24 08:29N 45°37' W 122°48'0 0.0
2016-Aug-24 07:32N 45°37' W 122°48'568726.3
2016-Aug-24 07:32N 46°11' W 123°51'202132.2
2016-Aug-24 07:31N 46°12' W 123°23'206107.1
2016-Aug-24 07:31N 46°05' W 122°56'2929.2
2016-Aug-24 06:32N 45°37' W 122°48'568726.3
2016-Aug-24 06:32N 46°11' W 123°51'392270.2
2016-Aug-24 06:31N 46°05' W 122°56'20218.8
2016-Aug-24 06:25N 46°12' W 123°23'4322.8
2016-Aug-24 04:32N 45°37' W 122°48'569557.4
2016-Aug-24 04:32N 46°11' W 123°51'201954.5
2016-Aug-24 04:31N 46°12' W 123°23'202364.1
2016-Aug-24 04:31N 46°05' W 122°56'2929.4
2016-Aug-24 03:32N 45°37' W 122°48'5612544.1
2016-Aug-24 03:32N 46°11' W 123°51'5656.1
2016-Aug-24 02:32N 45°37' W 122°48'569557.4
2016-Aug-24 02:32N 46°11' W 123°51'5653.3
2016-Aug-24 01:29N 45°37' W 122°48'5611806.2
2016-Aug-24 01:29N 46°11' W 123°51'5659.0
2016-Aug-24 00:32N 45°37' W 122°48'5613380.4
2016-Aug-24 00:32N 46°11' W 123°51'39230.4
2016-Aug-24 00:22N 46°05' W 122°56'20142.6
2016-Aug-24 00:13N 46°12' W 123°23'4362.7
2016-Aug-23 23:32N 45°37' W 122°48'5611806.2
2016-Aug-23 23:32N 46°11' W 123°51'392132.6
2016-Aug-23 23:31N 46°05' W 122°56'20218.1
2016-Aug-23 23:25N 46°12' W 123°23'4348.5
2016-Aug-23 22:32N 45°37' W 122°48'5610563.5
2016-Aug-23 22:32N 46°11' W 123°51'201759.1
2016-Aug-23 22:31N 46°12' W 123°23'20188.9
2016-Aug-23 22:25N 46°05' W 122°56'2932.7
2016-Aug-23 21:32N 45°37' W 122°48'5616725.5
2016-Aug-23 21:32N 46°11' W 123°51'391954.9
2016-Aug-23 21:31N 46°05' W 122°56'3939.9
2016-Aug-23 20:32N 46°11' W 123°51'201804.2
2016-Aug-23 20:31N 46°12' W 123°23'43182.9
2016-Aug-23 20:17N 45°37' W 122°48'29166.0
2016-Aug-23 20:07N 46°05' W 122°56'3967.3
2016-Aug-23 19:32N 46°11' W 123°51'201563.6
2016-Aug-23 19:31N 46°12' W 123°23'202527.1
2016-Aug-23 19:31N 46°05' W 122°56'29379.6
2016-Aug-23 19:26N 45°37' W 122°48'5661.7
2016-Aug-23 18:32N 46°11' W 123°51'39558.5
2016-Aug-23 18:28N 46°05' W 122°56'20475.9
2016-Aug-23 18:25N 46°12' W 123°23'14106.9
2016-Aug-23 18:17N 46°10' W 123°03'3512518.4
2016-Aug-23 18:17N 45°37' W 122°48'0 0.0
2016-Aug-23 17:32N 45°37' W 122°48'5612544.1
2016-Aug-23 17:32N 46°11' W 123°51'20295.6
2016-Aug-23 17:28N 46°12' W 123°23'14564.5
2016-Aug-23 17:26N 46°10' W 123°03'7260.6
2016-Aug-23 17:25N 46°05' W 122°56'3944.5
2016-Aug-23 16:32N 46°11' W 123°51'391982.4
2016-Aug-23 16:31N 46°05' W 122°56'7289.7
2016-Aug-23 16:29N 46°10' W 123°03'3511382.2
2016-Aug-23 16:29N 45°37' W 122°48'43133.7
2016-Aug-23 16:10N 46°12' W 123°23'4368.1
2016-Aug-23 15:32N 45°37' W 122°48'5613380.4
2016-Aug-23 15:32N 46°11' W 123°51'33779.3
2016-Aug-23 15:29N 46°10' W 123°03'731.9
2016-Aug-23 15:16N 46°05' W 122°56'3953.6
2016-Aug-23 14:32N 46°11' W 123°51'3320002.0
2016-Aug-23 14:32N 46°10' W 123°03'7105.1
2016-Aug-23 14:28N 46°05' W 122°56'291110.1
2016-Aug-23 14:26N 45°37' W 122°48'2931.1
2016-Aug-23 13:31N 46°05' W 122°56'7299.5
2016-Aug-23 13:29N 46°10' W 123°03'336000.6
2016-Aug-23 13:29N 46°11' W 123°51'561180.6
2016-Aug-23 13:26N 45°37' W 122°48'43219.6
2016-Aug-23 13:14N 46°12' W 123°23'0 0.0
2016-Aug-23 12:32N 46°12' W 123°23'439648.0
2016-Aug-23 12:32N 45°37' W 122°48'5614336.1
2016-Aug-23 12:32N 46°11' W 123°51'33774.3
2016-Aug-23 12:29N 46°10' W 123°03'793.4
2016-Aug-23 12:25N 46°05' W 122°56'2023.4
2016-Aug-23 11:32N 46°12' W 123°23'147177.6
2016-Aug-23 11:32N 46°10' W 123°03'3512518.4
2016-Aug-23 11:32N 45°37' W 122°48'5620070.6
2016-Aug-23 11:32N 46°11' W 123°51'391042.6
2016-Aug-23 11:30N 46°05' W 122°56'0 0.0
2016-Aug-23 10:33N 46°05' W 122°56'201163.3
2016-Aug-23 10:32N 46°12' W 123°23'437350.8
2016-Aug-23 10:32N 45°37' W 122°48'5625088.2
2016-Aug-23 10:32N 46°11' W 123°51'3317144.5
2016-Aug-23 10:32N 46°10' W 123°03'7 7.4
2016-Aug-23 09:33N 46°05' W 122°56'201201.4
2016-Aug-23 09:32N 46°12' W 123°23'437350.8
2016-Aug-23 09:32N 45°37' W 122°48'357824.0
2016-Aug-23 09:32N 46°10' W 123°03'33689.7
2016-Aug-23 09:29N 46°11' W 123°51'3942.3
2016-Aug-23 08:33N 46°05' W 122°56'291306.8
2016-Aug-23 08:32N 45°37' W 122°48'5620070.6
2016-Aug-23 08:32N 46°11' W 123°51'3317144.5
2016-Aug-23 08:32N 46°10' W 123°03'1473.5
2016-Aug-23 08:20N 46°12' W 123°23'2026.0
2016-Aug-23 07:33N 46°05' W 122°56'291290.5
2016-Aug-23 07:32N 45°37' W 122°48'5618246.0
2016-Aug-23 07:32N 46°11' W 123°51'3330002.9
2016-Aug-23 07:32N 46°10' W 123°03'1448.0
2016-Aug-23 07:14N 46°12' W 123°23'4360.8
2016-Aug-23 06:32N 45°37' W 122°48'5616725.5
2016-Aug-23 06:32N 46°11' W 123°51'391303.3
2016-Aug-23 06:30N 46°05' W 122°56'7334.1
2016-Aug-23 06:29N 46°10' W 123°03'14344.1
2016-Aug-23 06:26N 46°12' W 123°23'0 0.0
2016-Aug-23 05:32N 46°12' W 123°23'439081.5
2016-Aug-23 05:32N 45°37' W 122°48'29832.6
2016-Aug-23 05:30N 46°05' W 122°56'7361.9
2016-Aug-23 05:29N 46°10' W 123°03'33689.7
2016-Aug-23 05:26N 46°11' W 123°51'2021.9
2016-Aug-23 04:32N 46°12' W 123°23'437718.4
2016-Aug-23 04:32N 45°37' W 122°48'5625088.2
2016-Aug-23 04:32N 46°11' W 123°51'391234.7
2016-Aug-23 04:30N 46°05' W 122°56'7356.9
2016-Aug-23 04:29N 46°10' W 123°03'3536.7
2016-Aug-23 03:32N 45°37' W 122°48'5633450.9
2016-Aug-23 03:32N 46°11' W 123°51'3317144.5
2016-Aug-23 03:32N 46°10' W 123°03'1473.2
2016-Aug-23 03:20N 46°12' W 123°23'20146.6
2016-Aug-23 03:12N 46°05' W 122°56'2943.1
2016-Aug-23 02:32N 45°37' W 122°48'5625088.2
2016-Aug-23 02:32N 46°11' W 123°51'33110.8
2016-Aug-23 02:14N 46°10' W 123°03'3347.7
2016-Aug-23 01:32N 46°11' W 123°51'33219.4
2016-Aug-23 01:23N 46°10' W 123°03'35745.1
2016-Aug-23 01:20N 45°37' W 122°48'2936.6
2016-Aug-23 00:33N 46°05' W 122°56'291749.8
2016-Aug-23 00:32N 45°37' W 122°48'5640141.1
2016-Aug-23 00:32N 46°11' W 123°51'3330002.9
2016-Aug-23 00:32N 46°10' W 123°03'3534.8
2016-Aug-22 23:32N 45°37' W 122°48'5666901.9
2016-Aug-22 23:32N 46°11' W 123°51'33327.9
2016-Aug-22 23:26N 46°10' W 123°03'755.6
2016-Aug-22 23:18N 46°05' W 122°56'3951.0
2016-Aug-22 22:32N 46°11' W 123°51'3315001.5
2016-Aug-22 22:32N 46°10' W 123°03'789.2
2016-Aug-22 22:27N 46°05' W 122°56'291720.7
2016-Aug-22 22:26N 45°37' W 122°48'5662.0
2016-Aug-22 21:32N 46°11' W 123°51'56200705.6
2016-Aug-22 21:32N 45°37' W 122°48'3511380.3
2016-Aug-22 21:32N 46°10' W 123°03'1498.7
2016-Aug-22 21:23N 46°12' W 123°23'20229.0
2016-Aug-22 21:18N 46°05' W 122°56'2026.7
2016-Aug-22 20:32N 46°12' W 123°23'203909.1
2016-Aug-22 20:32N 46°11' W 123°51'3313334.6
2016-Aug-22 20:32N 46°10' W 123°03'35736.4
2016-Aug-22 20:29N 45°37' W 122°48'29101.1
2016-Aug-22 20:12N 46°05' W 122°56'710.8
2016-Aug-22 19:32N 46°10' W 123°03'33685.8
2016-Aug-22 19:29N 46°11' W 123°51'2056.8
2016-Aug-22 19:08N 46°12' W 123°23'2034.6
2016-Aug-22 18:33N 46°05' W 122°56'201744.9
2016-Aug-22 18:32N 46°12' W 123°23'203909.1
2016-Aug-22 18:32N 46°11' W 123°51'3313334.6
2016-Aug-22 18:32N 46°10' W 123°03'35745.1
2016-Aug-22 18:29N 45°37' W 122°48'2930.7
2016-Aug-22 17:33N 46°05' W 122°56'29435.6
2016-Aug-22 17:29N 45°37' W 122°48'56200705.6
2016-Aug-22 17:29N 46°11' W 123°51'3315001.5
2016-Aug-22 17:29N 46°10' W 123°03'7 7.8
2016-Aug-22 16:33N 46°05' W 122°56'392385.6
2016-Aug-22 16:32N 46°11' W 123°51'3313334.6
2016-Aug-22 16:32N 46°10' W 123°03'35736.4
2016-Aug-22 16:29N 45°37' W 122°48'5658.7
2016-Aug-22 15:32N 46°11' W 123°51'56200705.6
2016-Aug-22 15:32N 45°37' W 122°48'3511380.3
2016-Aug-22 15:32N 46°10' W 123°03'7232.7
2016-Aug-22 15:30N 46°05' W 122°56'2929.7
2016-Aug-22 14:32N 45°37' W 122°48'3531295.9
2016-Aug-22 14:32N 46°10' W 123°03'7224.6
2016-Aug-22 14:30N 46°05' W 122°56'392426.8
2016-Aug-22 14:29N 46°11' W 123°51'3335.0
2016-Aug-22 13:32N 46°10' W 123°03'33689.7
2016-Aug-22 13:29N 46°11' W 123°51'56200692.5
2016-Aug-22 13:29N 45°37' W 122°48'29867.6
2016-Aug-22 13:27N 46°05' W 122°56'2931.3
2016-Aug-22 12:32N 45°37' W 122°48'3517883.4
2016-Aug-22 12:32N 46°10' W 123°03'33697.7
2016-Aug-22 12:29N 46°11' W 123°51'39212.0
2016-Aug-22 12:18N 46°05' W 122°56'3951.0
2016-Aug-22 11:32N 46°11' W 123°51'391153.7
2016-Aug-22 11:30N 46°05' W 122°56'291780.0
2016-Aug-22 11:29N 45°37' W 122°48'35673.0
2016-Aug-22 11:26N 46°10' W 123°03'3337.2
2016-Aug-22 10:32N 46°11' W 123°51'561096.8
2016-Aug-22 10:29N 45°37' W 122°48'29341.9
2016-Aug-22 10:24N 46°05' W 122°56'743.1
2016-Aug-22 10:14N 46°10' W 123°03'3347.7
2016-Aug-22 09:32N 46°11' W 123°51'3320001.9
2016-Aug-22 09:32N 46°10' W 123°03'35719.4
2016-Aug-22 09:29N 45°37' W 122°48'29341.9
2016-Aug-22 09:24N 46°05' W 122°56'3945.2
2016-Aug-22 08:32N 46°11' W 123°51'5650176.4
2016-Aug-22 08:32N 45°37' W 122°48'35125183.7
2016-Aug-22 08:32N 46°10' W 123°03'7215.3
2016-Aug-22 08:30N 46°05' W 122°56'2078.0
2016-Aug-22 08:14N 46°12' W 123°23'2027.8
2016-Aug-22 07:32N 46°11' W 123°51'33631.6
2016-Aug-22 07:29N 46°10' W 123°03'35707.3
2016-Aug-22 07:26N 45°37' W 122°48'29882.4
2016-Aug-22 07:24N 46°05' W 122°56'3945.2
2016-Aug-22 06:32N 46°11' W 123°51'5666901.9
2016-Aug-22 06:32N 45°37' W 122°48'35125183.7
2016-Aug-22 06:32N 46°10' W 123°03'7245.8
2016-Aug-22 06:30N 46°05' W 122°56'3940.3
2016-Aug-22 05:32N 46°11' W 123°51'5622300.6
2016-Aug-22 05:32N 45°37' W 122°48'29890.0
2016-Aug-22 05:30N 46°05' W 122°56'7400.9
2016-Aug-22 05:29N 46°10' W 123°03'14147.8
2016-Aug-22 05:23N 46°12' W 123°23'2024.3
2016-Aug-22 04:33N 46°05' W 122°56'392559.1
2016-Aug-22 04:32N 46°11' W 123°51'5633448.7
2016-Aug-22 04:32N 45°37' W 122°48'35687.8
2016-Aug-22 04:29N 46°10' W 123°03'3335.2
2016-Aug-22 03:32N 46°11' W 123°51'56200705.6
2016-Aug-22 03:32N 45°37' W 122°48'3525036.7
2016-Aug-22 03:32N 46°10' W 123°03'754.4
2016-Aug-22 03:24N 46°05' W 122°56'3945.2
2016-Aug-22 02:32N 46°11' W 123°51'33327.9
2016-Aug-22 02:26N 46°10' W 123°03'7215.3
2016-Aug-22 02:24N 46°05' W 122°56'29428.4
2016-Aug-22 02:20N 45°37' W 122°48'43220.2
2016-Aug-22 02:08N 46°12' W 123°23'2032.4
2016-Aug-22 01:32N 46°11' W 123°51'3360005.9
2016-Aug-22 01:32N 46°10' W 123°03'3517883.4
2016-Aug-22 01:32N 45°37' W 122°48'29214.2
2016-Aug-22 01:24N 46°05' W 122°56'3945.3
2016-Aug-22 00:32N 46°11' W 123°51'5620070.6
2016-Aug-22 00:32N 45°37' W 122°48'29874.9
2016-Aug-22 00:30N 46°05' W 122°56'7296.1
2016-Aug-22 00:29N 46°10' W 123°03'3335.5
2016-Aug-21 23:32N 46°11' W 123°51'5622300.6
2016-Aug-21 23:32N 45°37' W 122°48'354172.8
2016-Aug-21 23:32N 46°10' W 123°03'741.4
2016-Aug-21 23:21N 46°05' W 122°56'3948.1
2016-Aug-21 22:32N 46°11' W 123°51'5615438.9
2016-Aug-21 22:32N 45°37' W 122°48'354636.4
2016-Aug-21 22:32N 46°10' W 123°03'741.3
2016-Aug-21 22:21N 46°05' W 122°56'2935.1
2016-Aug-21 21:32N 45°37' W 122°48'354470.8
2016-Aug-21 21:32N 46°10' W 123°03'33845.2
2016-Aug-21 21:29N 46°11' W 123°51'39210.7
2016-Aug-21 21:18N 46°05' W 122°56'2025.9
2016-Aug-21 20:31N 46°12' W 123°23'201526.8
2016-Aug-21 20:30N 46°05' W 122°56'392759.8
2016-Aug-21 20:29N 46°11' W 123°51'333333.7
2016-Aug-21 20:29N 46°10' W 123°03'35374.8
2016-Aug-21 20:23N 45°37' W 122°48'5666.0
2016-Aug-21 19:32N 46°11' W 123°51'332857.4
2016-Aug-21 19:32N 46°10' W 123°03'7271.4
2016-Aug-21 19:30N 46°05' W 122°56'20235.6
2016-Aug-21 19:25N 46°12' W 123°23'43537.9
2016-Aug-21 19:20N 45°37' W 122°48'5669.9
2016-Aug-21 18:32N 46°11' W 123°51'333529.8
2016-Aug-21 18:32N 46°10' W 123°03'7274.3
2016-Aug-21 18:30N 46°05' W 122°56'291720.7
2016-Aug-21 18:29N 45°37' W 122°48'5658.9
2016-Aug-21 17:32N 46°11' W 123°51'5616724.4
2016-Aug-21 17:32N 45°37' W 122°48'355442.8
2016-Aug-21 17:32N 46°10' W 123°03'794.4
2016-Aug-21 17:27N 46°05' W 122°56'20148.7
2016-Aug-21 17:19N 46°12' W 123°23'2025.2
2016-Aug-21 16:32N 46°11' W 123°51'5615438.9
2016-Aug-21 16:32N 45°37' W 122°48'355442.8
2016-Aug-21 16:32N 46°10' W 123°03'731.9
2016-Aug-21 16:18N 46°05' W 122°56'3951.3
2016-Aug-21 15:32N 46°11' W 123°51'5611806.2
2016-Aug-21 15:32N 45°37' W 122°48'432144.0
2016-Aug-21 15:31N 46°12' W 123°23'201526.8
2016-Aug-21 15:30N 46°05' W 122°56'798.7
2016-Aug-21 15:26N 46°10' W 123°03'3337.5
2016-Aug-21 14:32N 46°11' W 123°51'333333.7
2016-Aug-21 14:32N 46°10' W 123°03'35797.3
2016-Aug-21 14:29N 45°37' W 122°48'29860.3
2016-Aug-21 14:27N 46°05' W 122°56'2085.9
2016-Aug-21 14:13N 46°12' W 123°23'2028.9
2016-Aug-21 13:32N 46°11' W 123°51'5615437.9
2016-Aug-21 13:32N 45°37' W 122°48'355442.8
2016-Aug-21 13:32N 46°10' W 123°03'756.9
2016-Aug-21 13:24N 46°05' W 122°56'2933.1
2016-Aug-21 12:32N 45°37' W 122°48'29853.2
2016-Aug-21 12:30N 46°05' W 122°56'393273.3
2016-Aug-21 12:29N 46°11' W 123°51'333243.6
2016-Aug-21 12:29N 46°10' W 123°03'3335.5
2016-Aug-21 11:32N 46°11' W 123°51'5611806.2
2016-Aug-21 11:32N 45°37' W 122°48'355690.2
2016-Aug-21 11:32N 46°10' W 123°03'14216.6
2016-Aug-21 11:28N 46°12' W 123°23'20125.5
2016-Aug-21 11:18N 46°05' W 122°56'3951.3
2016-Aug-21 10:32N 46°11' W 123°51'5610563.5
2016-Aug-21 10:32N 45°37' W 122°48'432237.2
2016-Aug-21 10:31N 46°12' W 123°23'201526.8
2016-Aug-21 10:30N 46°05' W 122°56'799.5
2016-Aug-21 10:26N 46°10' W 123°03'7 8.3
2016-Aug-21 09:33N 46°05' W 122°56'393059.8
2016-Aug-21 09:32N 46°11' W 123°51'5615437.9
2016-Aug-21 09:32N 45°37' W 122°48'35168.5
2016-Aug-21 09:20N 46°10' W 123°03'3342.2
2016-Aug-21 08:32N 46°11' W 123°51'5614336.1
2016-Aug-21 08:32N 45°37' W 122°48'355442.8
2016-Aug-21 08:32N 46°10' W 123°03'14985.2
2016-Aug-21 08:31N 46°12' W 123°23'201559.3
2016-Aug-21 08:30N 46°05' W 122°56'3940.7
2016-Aug-21 07:32N 46°11' W 123°51'20756.6
2016-Aug-21 07:31N 46°12' W 123°23'201593.2
2016-Aug-21 07:30N 46°05' W 122°56'7321.7
2016-Aug-21 07:29N 46°10' W 123°03'35368.2
2016-Aug-21 07:23N 45°37' W 122°48'5666.0
2016-Aug-21 06:32N 46°11' W 123°51'5613380.4
2016-Aug-21 06:32N 45°37' W 122°48'35622.8
2016-Aug-21 06:29N 46°10' W 123°03'1484.4
2016-Aug-21 06:19N 46°12' W 123°23'2025.2
2016-Aug-21 05:32N 46°11' W 123°51'5610563.5
2016-Aug-21 05:32N 45°37' W 122°48'29860.3
2016-Aug-21 05:30N 46°05' W 122°56'201242.1
2016-Aug-21 05:29N 46°12' W 123°23'2020.7
2016-Aug-21 04:32N 46°11' W 123°51'333636.7
2016-Aug-21 04:32N 46°10' W 123°03'7248.2
2016-Aug-21 04:30N 46°05' W 122°56'201263.5
2016-Aug-21 04:29N 46°12' W 123°23'43852.9
2016-Aug-21 04:26N 45°37' W 122°48'5662.3
2016-Aug-21 03:32N 46°11' W 123°51'5611150.3
2016-Aug-21 03:32N 45°37' W 122°48'356259.2
2016-Aug-21 03:32N 46°10' W 123°03'14310.1
2016-Aug-21 03:29N 46°12' W 123°23'20243.5
2016-Aug-21 03:24N 46°05' W 122°56'3945.4
2016-Aug-21 02:32N 46°11' W 123°51'56525.4
2016-Aug-21 02:26N 45°37' W 122°48'357363.7
2016-Aug-21 02:26N 46°10' W 123°03'1497.0
2016-Aug-21 02:17N 46°12' W 123°23'20586.3
2016-Aug-21 02:15N 46°05' W 122°56'3955.2
2016-Aug-21 01:32N 46°11' W 123°51'56517.3
2016-Aug-21 01:26N 45°37' W 122°48'3511380.3
2016-Aug-21 01:26N 46°10' W 123°03'7250.5
2016-Aug-21 01:24N 46°05' W 122°56'3945.4
2016-Aug-21 00:32N 46°11' W 123°51'333871.3
2016-Aug-21 00:32N 46°10' W 123°03'7258.0
2016-Aug-21 00:30N 46°05' W 122°56'29413.0
2016-Aug-21 00:26N 45°37' W 122°48'5662.8
2016-Aug-20 23:33N 46°11' W 123°51'333158.2
2016-Aug-20 23:32N 46°10' W 123°03'3517883.4
2016-Aug-20 23:32N 45°37' W 122°48'291042.8
2016-Aug-20 23:30N 46°05' W 122°56'3940.5
2016-Aug-20 22:32N 46°11' W 123°51'39991.2
2016-Aug-20 22:30N 46°05' W 122°56'29432.0
2016-Aug-20 22:26N 45°37' W 122°48'3513909.3
2016-Aug-20 22:26N 46°10' W 123°03'3337.4
2016-Aug-20 21:32N 46°11' W 123°51'568726.3
2016-Aug-20 21:32N 45°37' W 122°48'358345.6
2016-Aug-20 21:32N 46°10' W 123°03'7253.0
2016-Aug-20 21:30N 46°05' W 122°56'201201.4
2016-Aug-20 21:29N 46°12' W 123°23'2020.7
2016-Aug-20 20:32N 46°11' W 123°51'333000.3
2016-Aug-20 20:32N 46°10' W 123°03'35238.9
2016-Aug-20 20:23N 45°37' W 122°48'29341.9
2016-Aug-20 20:18N 46°05' W 122°56'2094.0
2016-Aug-20 20:05N 46°12' W 123°23'1425.2
2016-Aug-20 19:32N 46°10' W 123°03'7243.5
2016-Aug-20 19:30N 46°05' W 122°56'393909.8
2016-Aug-20 19:29N 46°11' W 123°51'202814.6
2016-Aug-20 19:29N 46°12' W 123°23'43143.1
2016-Aug-20 19:11N 45°37' W 122°48'5686.7
2016-Aug-20 18:32N 46°11' W 123°51'333529.8
2016-Aug-20 18:32N 46°10' W 123°03'14293.8
2016-Aug-20 18:29N 46°12' W 123°23'43431.2
2016-Aug-20 18:23N 45°37' W 122°48'29343.0
2016-Aug-20 18:18N 46°05' W 122°56'3951.5
2016-Aug-20 17:32N 46°11' W 123°51'56525.4
2016-Aug-20 17:26N 45°37' W 122°48'29825.9
2016-Aug-20 17:24N 46°05' W 122°56'20174.9
2016-Aug-20 17:17N 46°12' W 123°23'14260.3
2016-Aug-20 17:14N 46°10' W 123°03'3348.4
2016-Aug-20 16:32N 46°11' W 123°51'568362.7
2016-Aug-20 16:32N 45°37' W 122°48'29853.2
2016-Aug-20 16:30N 46°05' W 122°56'7102.6
2016-Aug-20 16:26N 46°10' W 123°03'1495.2
2016-Aug-20 16:17N 46°12' W 123°23'2027.8
2016-Aug-20 15:33N 46°05' W 122°56'393909.8
2016-Aug-20 15:32N 46°11' W 123°51'568028.2
2016-Aug-20 15:32N 45°37' W 122°48'3513909.3
2016-Aug-20 15:32N 46°10' W 123°03'1456.5
2016-Aug-20 15:17N 46°12' W 123°23'2026.3
2016-Aug-20 14:33N 46°11' W 123°51'566920.9
2016-Aug-20 14:32N 45°37' W 122°48'3513909.3
2016-Aug-20 14:32N 46°10' W 123°03'7236.9
2016-Aug-20 14:30N 46°05' W 122°56'2048.8
2016-Aug-20 14:05N 46°12' W 123°23'2036.0
2016-Aug-20 13:32N 46°11' W 123°51'569122.4
2016-Aug-20 13:32N 45°37' W 122°48'29853.2
2016-Aug-20 13:30N 46°05' W 122°56'201145.1
2016-Aug-20 13:29N 46°12' W 123°23'146280.4
2016-Aug-20 13:29N 46°10' W 123°03'7 7.8
2016-Aug-20 12:33N 46°05' W 122°56'394265.2
2016-Aug-20 12:33N 46°11' W 123°51'33548.0
2016-Aug-20 12:29N 46°10' W 123°03'35358.7
2016-Aug-20 12:23N 45°37' W 122°48'43154367.2
2016-Aug-20 12:23N 46°12' W 123°23'2023.2
2016-Aug-20 11:32N 46°11' W 123°51'567433.5
2016-Aug-20 11:32N 45°37' W 122°48'3513909.3
2016-Aug-20 11:32N 46°10' W 123°03'7241.3
2016-Aug-20 11:30N 46°05' W 122°56'20173.3
2016-Aug-20 11:23N 46°12' W 123°23'2023.2
2016-Aug-20 10:33N 46°11' W 123°51'333428.9
2016-Aug-20 10:32N 46°10' W 123°03'7234.7
2016-Aug-20 10:30N 46°05' W 122°56'291638.7
2016-Aug-20 10:29N 45°37' W 122°48'43286.9
2016-Aug-20 10:20N 46°12' W 123°23'2024.7
2016-Aug-20 09:33N 46°11' W 123°51'202606.1
2016-Aug-20 09:32N 46°12' W 123°23'146280.4
2016-Aug-20 09:32N 46°10' W 123°03'35352.6
2016-Aug-20 09:26N 45°37' W 122°48'29874.9
2016-Aug-20 09:24N 46°05' W 122°56'3945.5
2016-Aug-20 08:33N 46°11' W 123°51'564181.4
2016-Aug-20 08:32N 45°37' W 122°48'43958.8
2016-Aug-20 08:29N 46°12' W 123°23'20621.1
2016-Aug-20 08:27N 46°05' W 122°56'7377.6
2016-Aug-20 08:26N 46°10' W 123°03'3337.5
2016-Aug-20 07:33N 46°11' W 123°51'333428.9
2016-Aug-20 07:32N 46°10' W 123°03'14288.8
2016-Aug-20 07:29N 46°12' W 123°23'43779.7
2016-Aug-20 07:26N 45°37' W 122°48'29983.2
2016-Aug-20 07:24N 46°05' W 122°56'3943.1
2016-Aug-20 06:30N 46°11' W 123°51'333333.7
2016-Aug-20 06:29N 46°10' W 123°03'7234.7
2016-Aug-20 06:27N 46°05' W 122°56'291274.6
2016-Aug-20 06:26N 45°37' W 122°48'5662.9
2016-Aug-20 05:33N 46°11' W 123°51'564096.0
2016-Aug-20 05:32N 45°37' W 122°48'291012.2
2016-Aug-20 05:30N 46°05' W 122°56'7108.1
2016-Aug-20 05:26N 46°10' W 123°03'3337.5
2016-Aug-20 04:33N 46°11' W 123°51'563786.9
2016-Aug-20 04:32N 45°37' W 122°48'29983.2
2016-Aug-20 04:30N 46°05' W 122°56'7407.1
2016-Aug-20 04:29N 46°10' W 123°03'1470.2
2016-Aug-20 04:17N 46°12' W 123°23'2027.8
2016-Aug-20 03:33N 46°05' W 122°56'395212.9
2016-Aug-20 03:33N 46°11' W 123°51'333243.5
2016-Aug-20 03:32N 46°10' W 123°03'14288.8
2016-Aug-20 03:29N 46°12' W 123°23'43783.6
2016-Aug-20 03:26N 45°37' W 122°48'5662.9
2016-Aug-20 02:33N 46°11' W 123°51'20327.3
2016-Aug-20 02:29N 46°12' W 123°23'4311027.5
2016-Aug-20 02:29N 45°37' W 122°48'35749.6
2016-Aug-20 02:26N 46°10' W 123°03'7217.1
2016-Aug-20 02:24N 46°05' W 122°56'0 0.0
2016-Aug-20 01:33N 46°05' W 122°56'396119.6
2016-Aug-20 01:33N 46°11' W 123°51'563584.0
2016-Aug-20 01:32N 45°37' W 122°48'35362.9
2016-Aug-20 01:26N 46°10' W 123°03'3337.5
2016-Aug-20 00:33N 46°11' W 123°51'333333.7
2016-Aug-20 00:32N 46°10' W 123°03'7224.6
2016-Aug-20 00:30N 46°05' W 122°56'29398.6
2016-Aug-20 00:26N 45°37' W 122°48'5663.0
2016-Aug-19 23:33N 46°11' W 123°51'333529.8
2016-Aug-19 23:32N 46°10' W 123°03'35632.2
2016-Aug-19 23:29N 45°37' W 122°48'29367.4
2016-Aug-19 23:24N 46°05' W 122°56'3945.7
2016-Aug-19 22:33N 46°11' W 123°51'333000.3
2016-Aug-19 22:32N 46°10' W 123°03'358345.6
2016-Aug-19 22:32N 45°37' W 122°48'291002.3
2016-Aug-19 22:30N 46°05' W 122°56'3940.9
2016-Aug-19 21:33N 46°11' W 123°51'333000.3
2016-Aug-19 21:32N 46°10' W 123°03'358345.6
2016-Aug-19 21:32N 45°37' W 122°48'43295.2
2016-Aug-19 21:23N 46°12' W 123°23'2023.3
2016-Aug-19 20:33N 46°11' W 123°51'563716.8
2016-Aug-19 20:32N 45°37' W 122°48'291012.2
2016-Aug-19 20:30N 46°05' W 122°56'201221.4
2016-Aug-19 20:29N 46°12' W 123°23'14282.3
2016-Aug-19 20:26N 46°10' W 123°03'3337.4
2016-Aug-19 19:33N 46°11' W 123°51'333158.2
2016-Aug-19 19:32N 46°10' W 123°03'358941.7
2016-Aug-19 19:32N 45°37' W 122°48'43941.3
2016-Aug-19 19:29N 46°12' W 123°23'20152.7
2016-Aug-19 19:21N 46°05' W 122°56'3948.5
2016-Aug-19 18:33N 46°11' W 123°51'563584.0
2016-Aug-19 18:32N 45°37' W 122°48'35240.7
2016-Aug-19 18:23N 46°10' W 123°03'786.6
2016-Aug-19 18:18N 46°05' W 122°56'20174.5
2016-Aug-19 18:11N 46°12' W 123°23'2032.1
2016-Aug-19 17:33N 46°05' W 122°56'397408.0
2016-Aug-19 17:33N 46°11' W 123°51'333000.3
2016-Aug-19 17:32N 46°10' W 123°03'358345.6
2016-Aug-19 17:32N 45°37' W 122°48'4396.1
2016-Aug-19 17:05N 46°12' W 123°23'2036.3
2016-Aug-19 16:33N 46°11' W 123°51'333158.2
2016-Aug-19 16:32N 46°10' W 123°03'35635.5
2016-Aug-19 16:29N 45°37' W 122°48'29366.1
2016-Aug-19 16:24N 46°05' W 122°56'20173.7
2016-Aug-19 16:17N 46°12' W 123°23'2027.8
2016-Aug-19 15:33N 46°05' W 122°56'397037.6
2016-Aug-19 15:33N 46°11' W 123°51'333077.2
2016-Aug-19 15:32N 46°10' W 123°03'14280.7
2016-Aug-19 15:29N 46°12' W 123°23'43771.8
2016-Aug-19 15:26N 45°37' W 122°48'5663.1
2016-Aug-19 14:33N 46°11' W 123°51'333243.6
2016-Aug-19 14:32N 46°10' W 123°03'14273.1
2016-Aug-19 14:29N 46°12' W 123°23'437718.4
2016-Aug-19 14:29N 45°37' W 122°48'29371.4
2016-Aug-19 14:24N 46°05' W 122°56'7 8.4
2016-Aug-19 13:32N 46°10' W 123°03'7213.6
2016-Aug-19 13:30N 46°05' W 122°56'396397.8
2016-Aug-19 13:30N 46°11' W 123°51'201759.1
2016-Aug-19 13:29N 46°12' W 123°23'437350.8
2016-Aug-19 13:29N 45°37' W 122°48'5659.7
2016-Aug-19 12:33N 46°11' W 123°51'333529.8
2016-Aug-19 12:32N 46°10' W 123°03'7205.2
2016-Aug-19 12:30N 46°05' W 122°56'201285.7
2016-Aug-19 12:29N 46°12' W 123°23'438576.0
2016-Aug-19 12:29N 45°37' W 122°48'5659.7
2016-Aug-19 11:33N 46°11' W 123°51'333333.7
2016-Aug-19 11:32N 46°10' W 123°03'355961.1
2016-Aug-19 11:32N 45°37' W 122°48'29125.1
2016-Aug-19 11:18N 46°05' W 122°56'20123.0
2016-Aug-19 11:08N 46°12' W 123°23'2033.2
2016-Aug-19 10:33N 46°11' W 123°51'333333.7
2016-Aug-19 10:32N 46°10' W 123°03'7208.5
2016-Aug-19 10:30N 46°05' W 122°56'291395.1
2016-Aug-19 10:29N 45°37' W 122°48'43935.6
2016-Aug-19 10:26N 46°12' W 123°23'2022.0
2016-Aug-19 09:33N 46°11' W 123°51'563290.0
2016-Aug-19 09:32N 45°37' W 122°48'35370.4
2016-Aug-19 09:26N 46°10' W 123°03'14137.3
2016-Aug-19 09:20N 46°12' W 123°23'20605.7
2016-Aug-19 09:18N 46°05' W 122°56'0 0.0
2016-Aug-19 08:33N 46°05' W 122°56'397819.5
2016-Aug-19 08:33N 46°11' W 123°51'563345.1
2016-Aug-19 08:32N 45°37' W 122°48'35812.9
2016-Aug-19 08:29N 46°10' W 123°03'1469.4
2016-Aug-19 08:17N 46°12' W 123°23'1418.6
2016-Aug-19 07:32N 46°10' W 123°03'354814.8
2016-Aug-19 07:32N 45°37' W 122°48'291002.3
2016-Aug-19 07:30N 46°05' W 122°56'3911729.3
2016-Aug-19 07:30N 46°11' W 123°51'0 0.0
2016-Aug-19 06:33N 46°11' W 123°51'33553.0
2016-Aug-19 06:29N 46°10' W 123°03'14136.9
2016-Aug-19 06:23N 46°12' W 123°23'438124.6
2016-Aug-19 06:23N 45°37' W 122°48'29366.1
2016-Aug-19 06:18N 46°05' W 122°56'0 0.0
2016-Aug-19 05:33N 46°05' W 122°56'396702.5
2016-Aug-19 05:33N 46°11' W 123°51'333000.3
2016-Aug-19 05:32N 46°10' W 123°03'356259.2
2016-Aug-19 05:32N 45°37' W 122°48'43897.5
2016-Aug-19 05:29N 46°12' W 123°23'2020.9
2016-Aug-19 04:33N 46°11' W 123°51'563290.3
2016-Aug-19 04:32N 45°37' W 122°48'35365.0
2016-Aug-19 04:26N 46°10' W 123°03'7215.3
2016-Aug-19 04:24N 46°05' W 122°56'201221.4
2016-Aug-19 04:23N 46°12' W 123°23'2023.3
2016-Aug-19 03:33N 46°11' W 123°51'332927.1
2016-Aug-19 03:32N 46°10' W 123°03'356259.2
2016-Aug-19 03:32N 45°37' W 122°48'29930.1
2016-Aug-19 03:30N 46°05' W 122°56'201221.4
2016-Aug-19 03:29N 46°12' W 123°23'2020.8
2016-Aug-19 02:33N 46°11' W 123°51'563290.3
2016-Aug-19 02:32N 45°37' W 122°48'35829.0
2016-Aug-19 02:29N 46°10' W 123°03'783.2
2016-Aug-19 02:24N 46°05' W 122°56'2094.1
2016-Aug-19 02:11N 46°12' W 123°23'2030.6
2016-Aug-19 01:33N 46°11' W 123°51'39853.0
2016-Aug-19 01:30N 46°05' W 122°56'29236.8
2016-Aug-19 01:23N 45°37' W 122°48'35244.0
2016-Aug-19 01:14N 46°10' W 123°03'710.5
2016-Aug-19 00:33N 46°05' W 122°56'3911729.3
2016-Aug-19 00:33N 46°11' W 123°51'333243.6
2016-Aug-19 00:32N 46°10' W 123°03'35134.9
2016-Aug-19 00:17N 45°37' W 122°48'5676.2
2016-Aug-18 23:33N 46°11' W 123°51'333750.4
2016-Aug-18 23:32N 46°10' W 123°03'353681.9
2016-Aug-18 23:32N 45°37' W 122°48'29160.8
2016-Aug-18 23:21N 46°05' W 122°56'3948.7
2016-Aug-18 22:33N 46°11' W 123°51'333333.7
2016-Aug-18 22:32N 46°10' W 123°03'354316.7
2016-Aug-18 22:32N 45°37' W 122°48'5656.8
2016-Aug-18 21:33N 46°11' W 123°51'56815.9
2016-Aug-18 21:29N 45°37' W 122°48'29368.7
2016-Aug-18 21:24N 46°05' W 122°56'7113.4
2016-Aug-18 21:20N 46°10' W 123°03'1491.0
2016-Aug-18 21:11N 46°12' W 123°23'2030.7
2016-Aug-18 20:33N 46°11' W 123°51'563041.0
2016-Aug-18 20:32N 45°37' W 122°48'35181.7
2016-Aug-18 20:20N 46°10' W 123°03'7197.4
2016-Aug-18 20:18N 46°05' W 122°56'20174.1
2016-Aug-18 20:11N 46°12' W 123°23'1421.6
2016-Aug-18 19:32N 46°10' W 123°03'353681.9
2016-Aug-18 19:32N 45°37' W 122°48'291012.2
2016-Aug-18 19:30N 46°05' W 122°56'3911729.3
2016-Aug-18 19:30N 46°11' W 123°51'5557.3
2016-Aug-18 18:32N 45°41' W 122°46'3257596.1
2016-Aug-18 18:32N 46°10' W 123°03'7195.9
2016-Aug-18 18:30N 46°05' W 122°56'3910053.7
2016-Aug-18 18:30N 46°11' W 123°51'201436.0
2016-Aug-18 18:29N 46°12' W 123°23'1414.8
2016-Aug-18 17:32N 46°10' W 123°03'33869.7
2016-Aug-18 17:30N 46°11' W 123°51'55768.7
2016-Aug-18 17:26N 45°41' W 122°46'26939.6
2016-Aug-18 17:24N 46°05' W 122°56'201221.4
2016-Aug-18 17:23N 46°12' W 123°23'2023.4
2016-Aug-18 16:33N 46°11' W 123°51'333333.7
2016-Aug-18 16:32N 46°10' W 123°03'331698.5
2016-Aug-18 16:31N 45°40' W 122°46'261449.2
2016-Aug-18 16:30N 46°05' W 122°56'20174.5
2016-Aug-18 16:23N 46°12' W 123°23'2023.4
2016-Aug-18 15:33N 46°11' W 123°51'333428.9
2016-Aug-18 15:32N 46°10' W 123°03'14259.0
2016-Aug-18 15:29N 46°12' W 123°23'417760.3
2016-Aug-18 15:29N 45°41' W 122°46'26143.7
2016-Aug-18 15:18N 46°05' W 122°56'2837.5
2016-Aug-18 14:33N 45°38' W 122°47'5612561.1
2016-Aug-18 14:33N 46°11' W 123°51'333000.3
2016-Aug-18 14:32N 46°10' W 123°03'7193.0
2016-Aug-18 14:30N 46°05' W 122°56'2094.0
2016-Aug-18 14:17N 46°12' W 123°23'2026.6
2016-Aug-18 13:33N 46°11' W 123°51'332927.1
2016-Aug-18 13:32N 46°10' W 123°03'  

Dump ship's entire track history